<?xml version="1.0" encoding="UTF-8" standalone="no" ?>
<gpx xmlns="http://www.topografix.com/GPX/1/1" xmlns:xsi="http://www.w3.org/2001/XMLSchema-instance" xsi:schemaLocation="http://www.topografix.com/GPX/1/1 http://www.topografix.com/GPX/1/1/gpx.xsd" version="1.1" creator="VisuGPX - https://www.visugpx.com">
  <metadata>
    <name>83-M-Sillans la Cascade</name>
    <desc><![CDATA[83-M-Sillans la Cascade : par le nord]]></desc>
  </metadata>
  <trk>
    <name><![CDATA[2017-10-18-M-sillans la cascade Nord]]></name>
    <trkseg>
      <trkpt lat="43.56802" lon="6.18166">
        <ele>376.9</ele>
        <time>2017-10-18T11:58:46Z</time>
      </trkpt>
      <trkpt lat="43.56802" lon="6.18166">
        <ele>376</ele>
        <time>2017-10-18T11:58:46Z</time>
      </trkpt>
      <trkpt lat="43.56811" lon="6.18165">
        <ele>376.5</ele>
        <time>2017-10-18T11:59:28Z</time>
      </trkpt>
      <trkpt lat="43.56821" lon="6.18166">
        <ele>376.4</ele>
        <time>2017-10-18T11:59:37Z</time>
      </trkpt>
      <trkpt lat="43.56812" lon="6.18165">
        <ele>376.8</ele>
        <time>2017-10-18T12:00:20Z</time>
      </trkpt>
      <trkpt lat="43.56803" lon="6.18168">
        <ele>376.5</ele>
        <time>2017-10-18T12:00:30Z</time>
      </trkpt>
      <trkpt lat="43.56813" lon="6.18169">
        <ele>377.3</ele>
        <time>2017-10-18T12:04:58Z</time>
      </trkpt>
      <trkpt lat="43.56823" lon="6.18171">
        <ele>377.5</ele>
        <time>2017-10-18T12:05:07Z</time>
      </trkpt>
      <trkpt lat="43.56833" lon="6.18167">
        <ele>377.2</ele>
        <time>2017-10-18T12:05:27Z</time>
      </trkpt>
      <trkpt lat="43.56842" lon="6.18163">
        <ele>377.3</ele>
        <time>2017-10-18T12:05:34Z</time>
      </trkpt>
      <trkpt lat="43.5685" lon="6.18158">
        <ele>377.7</ele>
        <time>2017-10-18T12:06:03Z</time>
      </trkpt>
      <trkpt lat="43.56858" lon="6.18151">
        <ele>377.1</ele>
        <time>2017-10-18T12:06:16Z</time>
      </trkpt>
      <trkpt lat="43.56863" lon="6.18141">
        <ele>376.8</ele>
        <time>2017-10-18T12:06:26Z</time>
      </trkpt>
      <trkpt lat="43.56868" lon="6.1813">
        <ele>376.8</ele>
        <time>2017-10-18T12:06:39Z</time>
      </trkpt>
      <trkpt lat="43.56874" lon="6.18119">
        <ele>376.3</ele>
        <time>2017-10-18T12:06:49Z</time>
      </trkpt>
      <trkpt lat="43.56881" lon="6.1811">
        <ele>376.2</ele>
        <time>2017-10-18T12:06:58Z</time>
      </trkpt>
      <trkpt lat="43.56886" lon="6.18099">
        <ele>376.4</ele>
        <time>2017-10-18T12:07:08Z</time>
      </trkpt>
      <trkpt lat="43.56888" lon="6.18086">
        <ele>376.5</ele>
        <time>2017-10-18T12:07:16Z</time>
      </trkpt>
      <trkpt lat="43.56888" lon="6.18073">
        <ele>376.7</ele>
        <time>2017-10-18T12:07:23Z</time>
      </trkpt>
      <trkpt lat="43.56888" lon="6.1806">
        <ele>376.2</ele>
        <time>2017-10-18T12:07:32Z</time>
      </trkpt>
      <trkpt lat="43.5688" lon="6.18053">
        <ele>373.3</ele>
        <time>2017-10-18T12:07:55Z</time>
      </trkpt>
      <trkpt lat="43.56884" lon="6.1804">
        <ele>374.2</ele>
        <time>2017-10-18T12:08:04Z</time>
      </trkpt>
      <trkpt lat="43.56889" lon="6.1803">
        <ele>375.3</ele>
        <time>2017-10-18T12:08:11Z</time>
      </trkpt>
      <trkpt lat="43.56892" lon="6.18017">
        <ele>376</ele>
        <time>2017-10-18T12:08:17Z</time>
      </trkpt>
      <trkpt lat="43.56895" lon="6.18002">
        <ele>376.1</ele>
        <time>2017-10-18T12:08:24Z</time>
      </trkpt>
      <trkpt lat="43.56902" lon="6.17994">
        <ele>375.6</ele>
        <time>2017-10-18T12:08:35Z</time>
      </trkpt>
      <trkpt lat="43.56911" lon="6.17988">
        <ele>376.1</ele>
        <time>2017-10-18T12:08:44Z</time>
      </trkpt>
      <trkpt lat="43.56919" lon="6.17982">
        <ele>376.6</ele>
        <time>2017-10-18T12:08:54Z</time>
      </trkpt>
      <trkpt lat="43.56924" lon="6.1797">
        <ele>378.9</ele>
        <time>2017-10-18T12:09:06Z</time>
      </trkpt>
      <trkpt lat="43.56924" lon="6.17957">
        <ele>379.3</ele>
        <time>2017-10-18T12:09:15Z</time>
      </trkpt>
      <trkpt lat="43.56924" lon="6.17944">
        <ele>379.3</ele>
        <time>2017-10-18T12:09:25Z</time>
      </trkpt>
      <trkpt lat="43.56924" lon="6.17931">
        <ele>379.5</ele>
        <time>2017-10-18T12:09:33Z</time>
      </trkpt>
      <trkpt lat="43.56922" lon="6.17918">
        <ele>379.5</ele>
        <time>2017-10-18T12:09:43Z</time>
      </trkpt>
      <trkpt lat="43.56919" lon="6.17906">
        <ele>379.5</ele>
        <time>2017-10-18T12:09:49Z</time>
      </trkpt>
      <trkpt lat="43.56918" lon="6.17893">
        <ele>379.5</ele>
        <time>2017-10-18T12:09:58Z</time>
      </trkpt>
      <trkpt lat="43.56914" lon="6.17881">
        <ele>379.8</ele>
        <time>2017-10-18T12:10:07Z</time>
      </trkpt>
      <trkpt lat="43.56911" lon="6.17869">
        <ele>380</ele>
        <time>2017-10-18T12:10:16Z</time>
      </trkpt>
      <trkpt lat="43.56908" lon="6.17857">
        <ele>379.9</ele>
        <time>2017-10-18T12:10:24Z</time>
      </trkpt>
      <trkpt lat="43.56907" lon="6.17844">
        <ele>380.2</ele>
        <time>2017-10-18T12:10:32Z</time>
      </trkpt>
      <trkpt lat="43.56907" lon="6.1783">
        <ele>379.8</ele>
        <time>2017-10-18T12:10:41Z</time>
      </trkpt>
      <trkpt lat="43.56914" lon="6.17821">
        <ele>378.5</ele>
        <time>2017-10-18T12:10:50Z</time>
      </trkpt>
      <trkpt lat="43.5692" lon="6.17811">
        <ele>378.4</ele>
        <time>2017-10-18T12:10:58Z</time>
      </trkpt>
      <trkpt lat="43.56927" lon="6.17802">
        <ele>378.3</ele>
        <time>2017-10-18T12:11:07Z</time>
      </trkpt>
      <trkpt lat="43.56934" lon="6.17793">
        <ele>378.6</ele>
        <time>2017-10-18T12:11:15Z</time>
      </trkpt>
      <trkpt lat="43.56941" lon="6.17785">
        <ele>379.2</ele>
        <time>2017-10-18T12:11:23Z</time>
      </trkpt>
      <trkpt lat="43.5695" lon="6.17785">
        <ele>379.9</ele>
        <time>2017-10-18T12:11:32Z</time>
      </trkpt>
      <trkpt lat="43.5696" lon="6.17782">
        <ele>380.5</ele>
        <time>2017-10-18T12:11:42Z</time>
      </trkpt>
      <trkpt lat="43.56969" lon="6.17777">
        <ele>381.1</ele>
        <time>2017-10-18T12:11:52Z</time>
      </trkpt>
      <trkpt lat="43.56977" lon="6.17781">
        <ele>381.4</ele>
        <time>2017-10-18T12:11:59Z</time>
      </trkpt>
      <trkpt lat="43.56987" lon="6.17782">
        <ele>381.5</ele>
        <time>2017-10-18T12:12:07Z</time>
      </trkpt>
      <trkpt lat="43.56996" lon="6.17784">
        <ele>381.8</ele>
        <time>2017-10-18T12:12:14Z</time>
      </trkpt>
      <trkpt lat="43.57006" lon="6.17783">
        <ele>381.8</ele>
        <time>2017-10-18T12:12:22Z</time>
      </trkpt>
      <trkpt lat="43.57014" lon="6.17789">
        <ele>381.9</ele>
        <time>2017-10-18T12:12:28Z</time>
      </trkpt>
      <trkpt lat="43.57023" lon="6.17793">
        <ele>381.9</ele>
        <time>2017-10-18T12:12:36Z</time>
      </trkpt>
      <trkpt lat="43.57033" lon="6.17795">
        <ele>382.6</ele>
        <time>2017-10-18T12:12:45Z</time>
      </trkpt>
      <trkpt lat="43.57042" lon="6.17799">
        <ele>383.1</ele>
        <time>2017-10-18T12:12:53Z</time>
      </trkpt>
      <trkpt lat="43.57051" lon="6.17801">
        <ele>382.8</ele>
        <time>2017-10-18T12:13:03Z</time>
      </trkpt>
      <trkpt lat="43.57061" lon="6.17804">
        <ele>382.7</ele>
        <time>2017-10-18T12:13:12Z</time>
      </trkpt>
      <trkpt lat="43.5707" lon="6.17806">
        <ele>382.7</ele>
        <time>2017-10-18T12:13:20Z</time>
      </trkpt>
      <trkpt lat="43.5708" lon="6.17806">
        <ele>382.8</ele>
        <time>2017-10-18T12:13:28Z</time>
      </trkpt>
      <trkpt lat="43.5709" lon="6.17806">
        <ele>383</ele>
        <time>2017-10-18T12:13:37Z</time>
      </trkpt>
      <trkpt lat="43.57099" lon="6.17807">
        <ele>383</ele>
        <time>2017-10-18T12:13:45Z</time>
      </trkpt>
      <trkpt lat="43.57109" lon="6.17807">
        <ele>383</ele>
        <time>2017-10-18T12:13:54Z</time>
      </trkpt>
      <trkpt lat="43.57118" lon="6.17812">
        <ele>383.2</ele>
        <time>2017-10-18T12:14:02Z</time>
      </trkpt>
      <trkpt lat="43.57127" lon="6.17814">
        <ele>383.4</ele>
        <time>2017-10-18T12:14:10Z</time>
      </trkpt>
      <trkpt lat="43.57137" lon="6.17815">
        <ele>383.8</ele>
        <time>2017-10-18T12:14:19Z</time>
      </trkpt>
      <trkpt lat="43.57146" lon="6.17817">
        <ele>384.2</ele>
        <time>2017-10-18T12:14:27Z</time>
      </trkpt>
      <trkpt lat="43.57156" lon="6.17816">
        <ele>384.4</ele>
        <time>2017-10-18T12:14:36Z</time>
      </trkpt>
      <trkpt lat="43.57165" lon="6.17815">
        <ele>384.8</ele>
        <time>2017-10-18T12:14:44Z</time>
      </trkpt>
      <trkpt lat="43.57175" lon="6.17815">
        <ele>385.1</ele>
        <time>2017-10-18T12:14:53Z</time>
      </trkpt>
      <trkpt lat="43.57184" lon="6.17815">
        <ele>385.3</ele>
        <time>2017-10-18T12:15:01Z</time>
      </trkpt>
      <trkpt lat="43.57193" lon="6.17819">
        <ele>385.9</ele>
        <time>2017-10-18T12:15:10Z</time>
      </trkpt>
      <trkpt lat="43.57203" lon="6.17819">
        <ele>386.2</ele>
        <time>2017-10-18T12:15:19Z</time>
      </trkpt>
      <trkpt lat="43.57212" lon="6.17821">
        <ele>386.6</ele>
        <time>2017-10-18T12:15:28Z</time>
      </trkpt>
      <trkpt lat="43.57222" lon="6.17825">
        <ele>386.7</ele>
        <time>2017-10-18T12:15:37Z</time>
      </trkpt>
      <trkpt lat="43.57231" lon="6.17827">
        <ele>386.9</ele>
        <time>2017-10-18T12:15:45Z</time>
      </trkpt>
      <trkpt lat="43.57241" lon="6.17826">
        <ele>387</ele>
        <time>2017-10-18T12:15:54Z</time>
      </trkpt>
      <trkpt lat="43.5725" lon="6.17822">
        <ele>386.7</ele>
        <time>2017-10-18T12:16:03Z</time>
      </trkpt>
      <trkpt lat="43.57259" lon="6.17819">
        <ele>386.3</ele>
        <time>2017-10-18T12:16:12Z</time>
      </trkpt>
      <trkpt lat="43.57269" lon="6.17815">
        <ele>386.2</ele>
        <time>2017-10-18T12:16:21Z</time>
      </trkpt>
      <trkpt lat="43.57278" lon="6.1781">
        <ele>385.8</ele>
        <time>2017-10-18T12:16:29Z</time>
      </trkpt>
      <trkpt lat="43.57287" lon="6.17806">
        <ele>385.7</ele>
        <time>2017-10-18T12:16:37Z</time>
      </trkpt>
      <trkpt lat="43.57296" lon="6.17803">
        <ele>385.6</ele>
        <time>2017-10-18T12:16:45Z</time>
      </trkpt>
      <trkpt lat="43.57305" lon="6.178">
        <ele>385.2</ele>
        <time>2017-10-18T12:16:53Z</time>
      </trkpt>
      <trkpt lat="43.57314" lon="6.17796">
        <ele>385.4</ele>
        <time>2017-10-18T12:17:01Z</time>
      </trkpt>
      <trkpt lat="43.57323" lon="6.17791">
        <ele>385.1</ele>
        <time>2017-10-18T12:17:09Z</time>
      </trkpt>
      <trkpt lat="43.57333" lon="6.17789">
        <ele>385.1</ele>
        <time>2017-10-18T12:17:17Z</time>
      </trkpt>
      <trkpt lat="43.57341" lon="6.17783">
        <ele>385.4</ele>
        <time>2017-10-18T12:17:25Z</time>
      </trkpt>
      <trkpt lat="43.57349" lon="6.17775">
        <ele>385.7</ele>
        <time>2017-10-18T12:17:33Z</time>
      </trkpt>
      <trkpt lat="43.57357" lon="6.17768">
        <ele>385.5</ele>
        <time>2017-10-18T12:17:41Z</time>
      </trkpt>
      <trkpt lat="43.57365" lon="6.1776">
        <ele>385.4</ele>
        <time>2017-10-18T12:17:49Z</time>
      </trkpt>
      <trkpt lat="43.57372" lon="6.17753">
        <ele>385.3</ele>
        <time>2017-10-18T12:17:57Z</time>
      </trkpt>
      <trkpt lat="43.5738" lon="6.17745">
        <ele>385.6</ele>
        <time>2017-10-18T12:18:05Z</time>
      </trkpt>
      <trkpt lat="43.57388" lon="6.17738">
        <ele>385.6</ele>
        <time>2017-10-18T12:18:13Z</time>
      </trkpt>
      <trkpt lat="43.57395" lon="6.17728">
        <ele>385.7</ele>
        <time>2017-10-18T12:18:21Z</time>
      </trkpt>
      <trkpt lat="43.57401" lon="6.17718">
        <ele>385.6</ele>
        <time>2017-10-18T12:18:30Z</time>
      </trkpt>
      <trkpt lat="43.57404" lon="6.17705">
        <ele>385.1</ele>
        <time>2017-10-18T12:18:38Z</time>
      </trkpt>
      <trkpt lat="43.57405" lon="6.17692">
        <ele>384.7</ele>
        <time>2017-10-18T12:18:45Z</time>
      </trkpt>
      <trkpt lat="43.57406" lon="6.17679">
        <ele>384.6</ele>
        <time>2017-10-18T12:18:52Z</time>
      </trkpt>
      <trkpt lat="43.57414" lon="6.17674">
        <ele>384.4</ele>
        <time>2017-10-18T12:19:15Z</time>
      </trkpt>
      <trkpt lat="43.57424" lon="6.17674">
        <ele>384.2</ele>
        <time>2017-10-18T12:19:24Z</time>
      </trkpt>
      <trkpt lat="43.57433" lon="6.17677">
        <ele>384.1</ele>
        <time>2017-10-18T12:19:33Z</time>
      </trkpt>
      <trkpt lat="43.57442" lon="6.17678">
        <ele>384.1</ele>
        <time>2017-10-18T12:19:41Z</time>
      </trkpt>
      <trkpt lat="43.57452" lon="6.17677">
        <ele>384.5</ele>
        <time>2017-10-18T12:19:49Z</time>
      </trkpt>
      <trkpt lat="43.57461" lon="6.17674">
        <ele>384.6</ele>
        <time>2017-10-18T12:19:57Z</time>
      </trkpt>
      <trkpt lat="43.5747" lon="6.17671">
        <ele>384.2</ele>
        <time>2017-10-18T12:20:05Z</time>
      </trkpt>
      <trkpt lat="43.57479" lon="6.17665">
        <ele>384.2</ele>
        <time>2017-10-18T12:20:13Z</time>
      </trkpt>
      <trkpt lat="43.57488" lon="6.1766">
        <ele>383.9</ele>
        <time>2017-10-18T12:20:21Z</time>
      </trkpt>
      <trkpt lat="43.57497" lon="6.17662">
        <ele>384.1</ele>
        <time>2017-10-18T12:20:29Z</time>
      </trkpt>
      <trkpt lat="43.57506" lon="6.17667">
        <ele>384.2</ele>
        <time>2017-10-18T12:20:37Z</time>
      </trkpt>
      <trkpt lat="43.57515" lon="6.17671">
        <ele>384.5</ele>
        <time>2017-10-18T12:20:46Z</time>
      </trkpt>
      <trkpt lat="43.57524" lon="6.17675">
        <ele>384.6</ele>
        <time>2017-10-18T12:20:54Z</time>
      </trkpt>
      <trkpt lat="43.57532" lon="6.17679">
        <ele>384.7</ele>
        <time>2017-10-18T12:21:01Z</time>
      </trkpt>
      <trkpt lat="43.5754" lon="6.17686">
        <ele>384.9</ele>
        <time>2017-10-18T12:21:14Z</time>
      </trkpt>
      <trkpt lat="43.5755" lon="6.17686">
        <ele>384.5</ele>
        <time>2017-10-18T12:21:23Z</time>
      </trkpt>
      <trkpt lat="43.5756" lon="6.17686">
        <ele>384.8</ele>
        <time>2017-10-18T12:21:30Z</time>
      </trkpt>
      <trkpt lat="43.57569" lon="6.17688">
        <ele>385.4</ele>
        <time>2017-10-18T12:21:38Z</time>
      </trkpt>
      <trkpt lat="43.57579" lon="6.17688">
        <ele>385.6</ele>
        <time>2017-10-18T12:21:46Z</time>
      </trkpt>
      <trkpt lat="43.57587" lon="6.17684">
        <ele>385.5</ele>
        <time>2017-10-18T12:21:54Z</time>
      </trkpt>
      <trkpt lat="43.57595" lon="6.17677">
        <ele>385.4</ele>
        <time>2017-10-18T12:22:02Z</time>
      </trkpt>
      <trkpt lat="43.57605" lon="6.17672">
        <ele>385.5</ele>
        <time>2017-10-18T12:22:11Z</time>
      </trkpt>
      <trkpt lat="43.57613" lon="6.17668">
        <ele>385.6</ele>
        <time>2017-10-18T12:22:19Z</time>
      </trkpt>
      <trkpt lat="43.57622" lon="6.17663">
        <ele>385.8</ele>
        <time>2017-10-18T12:22:27Z</time>
      </trkpt>
      <trkpt lat="43.57632" lon="6.17659">
        <ele>385.9</ele>
        <time>2017-10-18T12:22:35Z</time>
      </trkpt>
      <trkpt lat="43.57641" lon="6.17655">
        <ele>385.7</ele>
        <time>2017-10-18T12:22:43Z</time>
      </trkpt>
      <trkpt lat="43.5765" lon="6.17652">
        <ele>385.7</ele>
        <time>2017-10-18T12:22:51Z</time>
      </trkpt>
      <trkpt lat="43.57658" lon="6.17647">
        <ele>385.5</ele>
        <time>2017-10-18T12:22:59Z</time>
      </trkpt>
      <trkpt lat="43.57668" lon="6.17645">
        <ele>385.6</ele>
        <time>2017-10-18T12:23:07Z</time>
      </trkpt>
      <trkpt lat="43.57678" lon="6.17641">
        <ele>385.6</ele>
        <time>2017-10-18T12:23:16Z</time>
      </trkpt>
      <trkpt lat="43.57687" lon="6.17637">
        <ele>385.7</ele>
        <time>2017-10-18T12:23:24Z</time>
      </trkpt>
      <trkpt lat="43.57696" lon="6.17633">
        <ele>385.7</ele>
        <time>2017-10-18T12:23:32Z</time>
      </trkpt>
      <trkpt lat="43.57704" lon="6.17626">
        <ele>385.6</ele>
        <time>2017-10-18T12:23:40Z</time>
      </trkpt>
      <trkpt lat="43.57713" lon="6.1762">
        <ele>385.5</ele>
        <time>2017-10-18T12:23:49Z</time>
      </trkpt>
      <trkpt lat="43.57721" lon="6.17612">
        <ele>385.8</ele>
        <time>2017-10-18T12:23:57Z</time>
      </trkpt>
      <trkpt lat="43.57729" lon="6.17606">
        <ele>385.7</ele>
        <time>2017-10-18T12:24:05Z</time>
      </trkpt>
      <trkpt lat="43.57738" lon="6.17599">
        <ele>385.8</ele>
        <time>2017-10-18T12:24:14Z</time>
      </trkpt>
      <trkpt lat="43.57747" lon="6.17593">
        <ele>386.4</ele>
        <time>2017-10-18T12:24:24Z</time>
      </trkpt>
      <trkpt lat="43.57757" lon="6.17592">
        <ele>386.9</ele>
        <time>2017-10-18T12:24:34Z</time>
      </trkpt>
      <trkpt lat="43.57766" lon="6.17594">
        <ele>387.1</ele>
        <time>2017-10-18T12:24:45Z</time>
      </trkpt>
      <trkpt lat="43.57775" lon="6.17595">
        <ele>387.5</ele>
        <time>2017-10-18T12:24:55Z</time>
      </trkpt>
      <trkpt lat="43.57782" lon="6.17587">
        <ele>388.1</ele>
        <time>2017-10-18T12:25:18Z</time>
      </trkpt>
      <trkpt lat="43.57792" lon="6.17582">
        <ele>388.2</ele>
        <time>2017-10-18T12:25:31Z</time>
      </trkpt>
      <trkpt lat="43.578" lon="6.17577">
        <ele>388.5</ele>
        <time>2017-10-18T12:25:44Z</time>
      </trkpt>
      <trkpt lat="43.57808" lon="6.17569">
        <ele>388.4</ele>
        <time>2017-10-18T12:25:55Z</time>
      </trkpt>
      <trkpt lat="43.57817" lon="6.17572">
        <ele>389.8</ele>
        <time>2017-10-18T12:26:16Z</time>
      </trkpt>
      <trkpt lat="43.57827" lon="6.17575">
        <ele>391.2</ele>
        <time>2017-10-18T12:26:32Z</time>
      </trkpt>
      <trkpt lat="43.57836" lon="6.17576">
        <ele>393.4</ele>
        <time>2017-10-18T12:26:49Z</time>
      </trkpt>
      <trkpt lat="43.57845" lon="6.17572">
        <ele>394.9</ele>
        <time>2017-10-18T12:27:03Z</time>
      </trkpt>
      <trkpt lat="43.57854" lon="6.17569">
        <ele>396.6</ele>
        <time>2017-10-18T12:27:21Z</time>
      </trkpt>
      <trkpt lat="43.57862" lon="6.17563">
        <ele>396.5</ele>
        <time>2017-10-18T12:27:33Z</time>
      </trkpt>
      <trkpt lat="43.57871" lon="6.17565">
        <ele>395.4</ele>
        <time>2017-10-18T12:28:05Z</time>
      </trkpt>
      <trkpt lat="43.5788" lon="6.17562">
        <ele>394.9</ele>
        <time>2017-10-18T12:28:21Z</time>
      </trkpt>
      <trkpt lat="43.57888" lon="6.17564">
        <ele>395.1</ele>
        <time>2017-10-18T12:29:48Z</time>
      </trkpt>
      <trkpt lat="43.57893" lon="6.17575">
        <ele>394.5</ele>
        <time>2017-10-18T12:30:29Z</time>
      </trkpt>
      <trkpt lat="43.57902" lon="6.17576">
        <ele>395.2</ele>
        <time>2017-10-18T12:31:30Z</time>
      </trkpt>
      <trkpt lat="43.57911" lon="6.17572">
        <ele>395.2</ele>
        <time>2017-10-18T12:31:41Z</time>
      </trkpt>
      <trkpt lat="43.5792" lon="6.17571">
        <ele>396.7</ele>
        <time>2017-10-18T12:32:04Z</time>
      </trkpt>
      <trkpt lat="43.57926" lon="6.1758">
        <ele>398.8</ele>
        <time>2017-10-18T12:32:16Z</time>
      </trkpt>
      <trkpt lat="43.57935" lon="6.17583">
        <ele>400.2</ele>
        <time>2017-10-18T12:33:12Z</time>
      </trkpt>
      <trkpt lat="43.57944" lon="6.17581">
        <ele>397.7</ele>
        <time>2017-10-18T12:33:44Z</time>
      </trkpt>
      <trkpt lat="43.57953" lon="6.17583">
        <ele>394.6</ele>
        <time>2017-10-18T12:34:13Z</time>
      </trkpt>
      <trkpt lat="43.57962" lon="6.17588">
        <ele>391.4</ele>
        <time>2017-10-18T12:34:50Z</time>
      </trkpt>
      <trkpt lat="43.57971" lon="6.17586">
        <ele>389.4</ele>
        <time>2017-10-18T12:35:09Z</time>
      </trkpt>
      <trkpt lat="43.57971" lon="6.17573">
        <ele>388.7</ele>
        <time>2017-10-18T12:35:19Z</time>
      </trkpt>
      <trkpt lat="43.57975" lon="6.17562">
        <ele>388</ele>
        <time>2017-10-18T12:35:30Z</time>
      </trkpt>
      <trkpt lat="43.57982" lon="6.17554">
        <ele>388.6</ele>
        <time>2017-10-18T12:35:50Z</time>
      </trkpt>
      <trkpt lat="43.57989" lon="6.17546">
        <ele>388.9</ele>
        <time>2017-10-18T12:36:16Z</time>
      </trkpt>
      <trkpt lat="43.57998" lon="6.17541">
        <ele>390.1</ele>
        <time>2017-10-18T12:36:39Z</time>
      </trkpt>
      <trkpt lat="43.58006" lon="6.17535">
        <ele>391</ele>
        <time>2017-10-18T12:36:51Z</time>
      </trkpt>
      <trkpt lat="43.58009" lon="6.17522">
        <ele>390</ele>
        <time>2017-10-18T12:37:13Z</time>
      </trkpt>
      <trkpt lat="43.58017" lon="6.17514">
        <ele>389</ele>
        <time>2017-10-18T12:37:56Z</time>
      </trkpt>
      <trkpt lat="43.58026" lon="6.17513">
        <ele>388.3</ele>
        <time>2017-10-18T12:38:07Z</time>
      </trkpt>
      <trkpt lat="43.58034" lon="6.17504">
        <ele>388.3</ele>
        <time>2017-10-18T12:38:18Z</time>
      </trkpt>
      <trkpt lat="43.58037" lon="6.17492">
        <ele>388.5</ele>
        <time>2017-10-18T12:38:25Z</time>
      </trkpt>
      <trkpt lat="43.58042" lon="6.17481">
        <ele>388.5</ele>
        <time>2017-10-18T12:38:35Z</time>
      </trkpt>
      <trkpt lat="43.58047" lon="6.1747">
        <ele>388.4</ele>
        <time>2017-10-18T12:38:44Z</time>
      </trkpt>
      <trkpt lat="43.58054" lon="6.17462">
        <ele>388.7</ele>
        <time>2017-10-18T12:38:54Z</time>
      </trkpt>
      <trkpt lat="43.58061" lon="6.17454">
        <ele>388.8</ele>
        <time>2017-10-18T12:39:04Z</time>
      </trkpt>
      <trkpt lat="43.58068" lon="6.17444">
        <ele>388.8</ele>
        <time>2017-10-18T12:39:15Z</time>
      </trkpt>
      <trkpt lat="43.58073" lon="6.17433">
        <ele>389.1</ele>
        <time>2017-10-18T12:39:22Z</time>
      </trkpt>
      <trkpt lat="43.58079" lon="6.17423">
        <ele>389.2</ele>
        <time>2017-10-18T12:39:32Z</time>
      </trkpt>
      <trkpt lat="43.58086" lon="6.17413">
        <ele>389.7</ele>
        <time>2017-10-18T12:39:46Z</time>
      </trkpt>
      <trkpt lat="43.5809" lon="6.17402">
        <ele>389.7</ele>
        <time>2017-10-18T12:39:57Z</time>
      </trkpt>
      <trkpt lat="43.58095" lon="6.17392">
        <ele>389.4</ele>
        <time>2017-10-18T12:40:37Z</time>
      </trkpt>
      <trkpt lat="43.581" lon="6.1738">
        <ele>389.5</ele>
        <time>2017-10-18T12:40:49Z</time>
      </trkpt>
      <trkpt lat="43.58105" lon="6.17368">
        <ele>389.5</ele>
        <time>2017-10-18T12:40:59Z</time>
      </trkpt>
      <trkpt lat="43.58111" lon="6.17359">
        <ele>389.9</ele>
        <time>2017-10-18T12:41:22Z</time>
      </trkpt>
      <trkpt lat="43.58115" lon="6.17347">
        <ele>390.3</ele>
        <time>2017-10-18T12:41:38Z</time>
      </trkpt>
      <trkpt lat="43.58118" lon="6.17335">
        <ele>390</ele>
        <time>2017-10-18T12:41:50Z</time>
      </trkpt>
      <trkpt lat="43.58123" lon="6.17323">
        <ele>390.2</ele>
        <time>2017-10-18T12:42:01Z</time>
      </trkpt>
      <trkpt lat="43.58127" lon="6.17311">
        <ele>390</ele>
        <time>2017-10-18T12:42:09Z</time>
      </trkpt>
      <trkpt lat="43.58132" lon="6.173">
        <ele>389.9</ele>
        <time>2017-10-18T12:42:21Z</time>
      </trkpt>
      <trkpt lat="43.5814" lon="6.17292">
        <ele>389.9</ele>
        <time>2017-10-18T12:42:32Z</time>
      </trkpt>
      <trkpt lat="43.58145" lon="6.1728">
        <ele>389.9</ele>
        <time>2017-10-18T12:42:39Z</time>
      </trkpt>
      <trkpt lat="43.58151" lon="6.1727">
        <ele>390</ele>
        <time>2017-10-18T12:42:49Z</time>
      </trkpt>
      <trkpt lat="43.58159" lon="6.17264">
        <ele>390</ele>
        <time>2017-10-18T12:43:01Z</time>
      </trkpt>
      <trkpt lat="43.58168" lon="6.17258">
        <ele>390.2</ele>
        <time>2017-10-18T12:43:12Z</time>
      </trkpt>
      <trkpt lat="43.58176" lon="6.17252">
        <ele>390.2</ele>
        <time>2017-10-18T12:43:25Z</time>
      </trkpt>
      <trkpt lat="43.58185" lon="6.17252">
        <ele>390</ele>
        <time>2017-10-18T12:43:38Z</time>
      </trkpt>
      <trkpt lat="43.58194" lon="6.17255">
        <ele>389.8</ele>
        <time>2017-10-18T12:43:47Z</time>
      </trkpt>
      <trkpt lat="43.58204" lon="6.17256">
        <ele>389.8</ele>
        <time>2017-10-18T12:43:57Z</time>
      </trkpt>
      <trkpt lat="43.58213" lon="6.17258">
        <ele>389.6</ele>
        <time>2017-10-18T12:44:07Z</time>
      </trkpt>
      <trkpt lat="43.58221" lon="6.17264">
        <ele>389.9</ele>
        <time>2017-10-18T12:44:24Z</time>
      </trkpt>
      <trkpt lat="43.58228" lon="6.17255">
        <ele>389.9</ele>
        <time>2017-10-18T12:44:57Z</time>
      </trkpt>
      <trkpt lat="43.58225" lon="6.17243">
        <ele>389.1</ele>
        <time>2017-10-18T12:46:00Z</time>
      </trkpt>
      <trkpt lat="43.58224" lon="6.17256">
        <ele>390.1</ele>
        <time>2017-10-18T12:47:33Z</time>
      </trkpt>
      <trkpt lat="43.58232" lon="6.17264">
        <ele>391.1</ele>
        <time>2017-10-18T12:47:48Z</time>
      </trkpt>
      <trkpt lat="43.58239" lon="6.17273">
        <ele>391.9</ele>
        <time>2017-10-18T12:47:56Z</time>
      </trkpt>
      <trkpt lat="43.58249" lon="6.1727">
        <ele>393.2</ele>
        <time>2017-10-18T12:48:07Z</time>
      </trkpt>
      <trkpt lat="43.58258" lon="6.17265">
        <ele>393.3</ele>
        <time>2017-10-18T12:48:18Z</time>
      </trkpt>
      <trkpt lat="43.58266" lon="6.1726">
        <ele>393.7</ele>
        <time>2017-10-18T12:48:30Z</time>
      </trkpt>
      <trkpt lat="43.58273" lon="6.17251">
        <ele>393.6</ele>
        <time>2017-10-18T12:48:41Z</time>
      </trkpt>
      <trkpt lat="43.58283" lon="6.17252">
        <ele>393.5</ele>
        <time>2017-10-18T12:48:56Z</time>
      </trkpt>
      <trkpt lat="43.58293" lon="6.17254">
        <ele>393.6</ele>
        <time>2017-10-18T12:49:10Z</time>
      </trkpt>
      <trkpt lat="43.58302" lon="6.17249">
        <ele>393.2</ele>
        <time>2017-10-18T12:49:22Z</time>
      </trkpt>
      <trkpt lat="43.5831" lon="6.17244">
        <ele>393.1</ele>
        <time>2017-10-18T12:49:41Z</time>
      </trkpt>
      <trkpt lat="43.58315" lon="6.17233">
        <ele>394</ele>
        <time>2017-10-18T12:50:12Z</time>
      </trkpt>
      <trkpt lat="43.58322" lon="6.17224">
        <ele>393.5</ele>
        <time>2017-10-18T12:50:24Z</time>
      </trkpt>
      <trkpt lat="43.58329" lon="6.17215">
        <ele>393.7</ele>
        <time>2017-10-18T12:50:38Z</time>
      </trkpt>
      <trkpt lat="43.58334" lon="6.17205">
        <ele>393.9</ele>
        <time>2017-10-18T12:50:48Z</time>
      </trkpt>
      <trkpt lat="43.5834" lon="6.17195">
        <ele>394</ele>
        <time>2017-10-18T12:50:59Z</time>
      </trkpt>
      <trkpt lat="43.58344" lon="6.17183">
        <ele>393.7</ele>
        <time>2017-10-18T12:51:10Z</time>
      </trkpt>
      <trkpt lat="43.58348" lon="6.1717">
        <ele>393.8</ele>
        <time>2017-10-18T12:51:18Z</time>
      </trkpt>
      <trkpt lat="43.58355" lon="6.17159">
        <ele>394.1</ele>
        <time>2017-10-18T12:51:34Z</time>
      </trkpt>
      <trkpt lat="43.58356" lon="6.17144">
        <ele>394.2</ele>
        <time>2017-10-18T12:52:05Z</time>
      </trkpt>
      <trkpt lat="43.5836" lon="6.17156">
        <ele>395.1</ele>
        <time>2017-10-18T12:52:34Z</time>
      </trkpt>
      <trkpt lat="43.58364" lon="6.17144">
        <ele>395.2</ele>
        <time>2017-10-18T12:53:23Z</time>
      </trkpt>
      <trkpt lat="43.58369" lon="6.17133">
        <ele>395.6</ele>
        <time>2017-10-18T12:53:32Z</time>
      </trkpt>
      <trkpt lat="43.58367" lon="6.1712">
        <ele>395.7</ele>
        <time>2017-10-18T12:53:40Z</time>
      </trkpt>
      <trkpt lat="43.58367" lon="6.17108">
        <ele>395.7</ele>
        <time>2017-10-18T12:53:50Z</time>
      </trkpt>
      <trkpt lat="43.5837" lon="6.17096">
        <ele>395.6</ele>
        <time>2017-10-18T12:54:02Z</time>
      </trkpt>
      <trkpt lat="43.58376" lon="6.17085">
        <ele>395.7</ele>
        <time>2017-10-18T12:54:16Z</time>
      </trkpt>
      <trkpt lat="43.58379" lon="6.17072">
        <ele>395.7</ele>
        <time>2017-10-18T12:54:28Z</time>
      </trkpt>
      <trkpt lat="43.58381" lon="6.17059">
        <ele>396</ele>
        <time>2017-10-18T12:54:38Z</time>
      </trkpt>
      <trkpt lat="43.58384" lon="6.17045">
        <ele>395.8</ele>
        <time>2017-10-18T12:54:54Z</time>
      </trkpt>
      <trkpt lat="43.58388" lon="6.17034">
        <ele>395.8</ele>
        <time>2017-10-18T12:55:10Z</time>
      </trkpt>
      <trkpt lat="43.58394" lon="6.17024">
        <ele>395.2</ele>
        <time>2017-10-18T12:55:22Z</time>
      </trkpt>
      <trkpt lat="43.58395" lon="6.17011">
        <ele>395</ele>
        <time>2017-10-18T12:55:30Z</time>
      </trkpt>
      <trkpt lat="43.584" lon="6.17">
        <ele>394.5</ele>
        <time>2017-10-18T12:55:46Z</time>
      </trkpt>
      <trkpt lat="43.58403" lon="6.16989">
        <ele>394.6</ele>
        <time>2017-10-18T12:55:59Z</time>
      </trkpt>
      <trkpt lat="43.58406" lon="6.16977">
        <ele>394.9</ele>
        <time>2017-10-18T12:56:10Z</time>
      </trkpt>
      <trkpt lat="43.58415" lon="6.16971">
        <ele>394.7</ele>
        <time>2017-10-18T12:56:24Z</time>
      </trkpt>
      <trkpt lat="43.58417" lon="6.16958">
        <ele>394.9</ele>
        <time>2017-10-18T12:56:31Z</time>
      </trkpt>
      <trkpt lat="43.58416" lon="6.16944">
        <ele>395</ele>
        <time>2017-10-18T12:56:36Z</time>
      </trkpt>
      <trkpt lat="43.5842" lon="6.16933">
        <ele>394.9</ele>
        <time>2017-10-18T12:56:50Z</time>
      </trkpt>
      <trkpt lat="43.58425" lon="6.16921">
        <ele>395</ele>
        <time>2017-10-18T12:57:04Z</time>
      </trkpt>
      <trkpt lat="43.58431" lon="6.16912">
        <ele>395.1</ele>
        <time>2017-10-18T12:57:20Z</time>
      </trkpt>
      <trkpt lat="43.58434" lon="6.169">
        <ele>395.3</ele>
        <time>2017-10-18T12:57:37Z</time>
      </trkpt>
      <trkpt lat="43.58438" lon="6.16887">
        <ele>395.5</ele>
        <time>2017-10-18T12:57:48Z</time>
      </trkpt>
      <trkpt lat="43.58442" lon="6.16876">
        <ele>395.5</ele>
        <time>2017-10-18T12:57:59Z</time>
      </trkpt>
      <trkpt lat="43.58444" lon="6.16863">
        <ele>395.4</ele>
        <time>2017-10-18T12:58:08Z</time>
      </trkpt>
      <trkpt lat="43.5845" lon="6.16852">
        <ele>396</ele>
        <time>2017-10-18T12:58:43Z</time>
      </trkpt>
      <trkpt lat="43.58455" lon="6.16841">
        <ele>395.3</ele>
        <time>2017-10-18T12:59:11Z</time>
      </trkpt>
      <trkpt lat="43.58452" lon="6.16829">
        <ele>395.5</ele>
        <time>2017-10-18T12:59:20Z</time>
      </trkpt>
      <trkpt lat="43.58456" lon="6.16817">
        <ele>396</ele>
        <time>2017-10-18T12:59:34Z</time>
      </trkpt>
      <trkpt lat="43.58463" lon="6.16809">
        <ele>395.3</ele>
        <time>2017-10-18T13:00:01Z</time>
      </trkpt>
      <trkpt lat="43.58463" lon="6.16796">
        <ele>395.1</ele>
        <time>2017-10-18T13:00:17Z</time>
      </trkpt>
      <trkpt lat="43.58471" lon="6.16788">
        <ele>395.3</ele>
        <time>2017-10-18T13:00:43Z</time>
      </trkpt>
      <trkpt lat="43.5848" lon="6.16786">
        <ele>395.6</ele>
        <time>2017-10-18T13:00:53Z</time>
      </trkpt>
      <trkpt lat="43.58484" lon="6.16775">
        <ele>395.5</ele>
        <time>2017-10-18T13:01:03Z</time>
      </trkpt>
      <trkpt lat="43.58489" lon="6.16763">
        <ele>395.4</ele>
        <time>2017-10-18T13:01:11Z</time>
      </trkpt>
      <trkpt lat="43.58488" lon="6.16751">
        <ele>396.2</ele>
        <time>2017-10-18T13:01:36Z</time>
      </trkpt>
      <trkpt lat="43.58488" lon="6.16738">
        <ele>396.4</ele>
        <time>2017-10-18T13:01:43Z</time>
      </trkpt>
      <trkpt lat="43.58492" lon="6.16726">
        <ele>396.2</ele>
        <time>2017-10-18T13:01:55Z</time>
      </trkpt>
      <trkpt lat="43.58492" lon="6.16714">
        <ele>396</ele>
        <time>2017-10-18T13:02:01Z</time>
      </trkpt>
      <trkpt lat="43.58494" lon="6.16701">
        <ele>396</ele>
        <time>2017-10-18T13:02:09Z</time>
      </trkpt>
      <trkpt lat="43.5849" lon="6.1669">
        <ele>396.6</ele>
        <time>2017-10-18T13:02:37Z</time>
      </trkpt>
      <trkpt lat="43.58496" lon="6.16701">
        <ele>396.4</ele>
        <time>2017-10-18T13:03:54Z</time>
      </trkpt>
      <trkpt lat="43.58503" lon="6.16709">
        <ele>396.3</ele>
        <time>2017-10-18T13:05:03Z</time>
      </trkpt>
      <trkpt lat="43.58502" lon="6.16697">
        <ele>396</ele>
        <time>2017-10-18T13:05:49Z</time>
      </trkpt>
      <trkpt lat="43.58502" lon="6.16684">
        <ele>396.3</ele>
        <time>2017-10-18T13:06:00Z</time>
      </trkpt>
      <trkpt lat="43.58501" lon="6.16671">
        <ele>396.5</ele>
        <time>2017-10-18T13:06:14Z</time>
      </trkpt>
      <trkpt lat="43.58499" lon="6.16658">
        <ele>397</ele>
        <time>2017-10-18T13:06:28Z</time>
      </trkpt>
      <trkpt lat="43.58498" lon="6.16644">
        <ele>396.8</ele>
        <time>2017-10-18T13:06:34Z</time>
      </trkpt>
      <trkpt lat="43.585" lon="6.16632">
        <ele>396.7</ele>
        <time>2017-10-18T13:06:41Z</time>
      </trkpt>
      <trkpt lat="43.58508" lon="6.16624">
        <ele>396.6</ele>
        <time>2017-10-18T13:07:09Z</time>
      </trkpt>
      <trkpt lat="43.58513" lon="6.16614">
        <ele>396.3</ele>
        <time>2017-10-18T13:07:21Z</time>
      </trkpt>
      <trkpt lat="43.58519" lon="6.16603">
        <ele>396.2</ele>
        <time>2017-10-18T13:07:40Z</time>
      </trkpt>
      <trkpt lat="43.58526" lon="6.16595">
        <ele>396.4</ele>
        <time>2017-10-18T13:07:59Z</time>
      </trkpt>
      <trkpt lat="43.58534" lon="6.16587">
        <ele>396.3</ele>
        <time>2017-10-18T13:08:11Z</time>
      </trkpt>
      <trkpt lat="43.58539" lon="6.16576">
        <ele>396.4</ele>
        <time>2017-10-18T13:08:23Z</time>
      </trkpt>
      <trkpt lat="43.58543" lon="6.16563">
        <ele>396.8</ele>
        <time>2017-10-18T13:08:38Z</time>
      </trkpt>
      <trkpt lat="43.58552" lon="6.16557">
        <ele>396.8</ele>
        <time>2017-10-18T13:08:51Z</time>
      </trkpt>
      <trkpt lat="43.58559" lon="6.16546">
        <ele>396.3</ele>
        <time>2017-10-18T13:09:03Z</time>
      </trkpt>
      <trkpt lat="43.58567" lon="6.16541">
        <ele>396.2</ele>
        <time>2017-10-18T13:09:15Z</time>
      </trkpt>
      <trkpt lat="43.58575" lon="6.16534">
        <ele>396.5</ele>
        <time>2017-10-18T13:09:28Z</time>
      </trkpt>
      <trkpt lat="43.58581" lon="6.16522">
        <ele>396.4</ele>
        <time>2017-10-18T13:09:39Z</time>
      </trkpt>
      <trkpt lat="43.5859" lon="6.16523">
        <ele>396.7</ele>
        <time>2017-10-18T13:09:50Z</time>
      </trkpt>
      <trkpt lat="43.586" lon="6.16522">
        <ele>397.3</ele>
        <time>2017-10-18T13:10:24Z</time>
      </trkpt>
      <trkpt lat="43.58609" lon="6.16519">
        <ele>397.6</ele>
        <time>2017-10-18T13:10:48Z</time>
      </trkpt>
      <trkpt lat="43.58617" lon="6.16513">
        <ele>398.9</ele>
        <time>2017-10-18T13:11:08Z</time>
      </trkpt>
      <trkpt lat="43.58623" lon="6.16503">
        <ele>397.3</ele>
        <time>2017-10-18T13:11:25Z</time>
      </trkpt>
      <trkpt lat="43.58631" lon="6.16497">
        <ele>396.8</ele>
        <time>2017-10-18T13:11:36Z</time>
      </trkpt>
      <trkpt lat="43.58638" lon="6.16489">
        <ele>396.6</ele>
        <time>2017-10-18T13:11:45Z</time>
      </trkpt>
      <trkpt lat="43.58638" lon="6.16476">
        <ele>396.3</ele>
        <time>2017-10-18T13:11:59Z</time>
      </trkpt>
      <trkpt lat="43.58646" lon="6.1647">
        <ele>396.2</ele>
        <time>2017-10-18T13:12:11Z</time>
      </trkpt>
      <trkpt lat="43.58654" lon="6.16464">
        <ele>396.8</ele>
        <time>2017-10-18T13:12:56Z</time>
      </trkpt>
      <trkpt lat="43.58662" lon="6.16471">
        <ele>400</ele>
        <time>2017-10-18T13:14:10Z</time>
      </trkpt>
      <trkpt lat="43.58667" lon="6.16482">
        <ele>405.6</ele>
        <time>2017-10-18T13:15:11Z</time>
      </trkpt>
      <trkpt lat="43.5867" lon="6.1647">
        <ele>407.2</ele>
        <time>2017-10-18T13:15:20Z</time>
      </trkpt>
      <trkpt lat="43.58674" lon="6.16458">
        <ele>408.4</ele>
        <time>2017-10-18T13:15:32Z</time>
      </trkpt>
      <trkpt lat="43.58681" lon="6.16468">
        <ele>408.2</ele>
        <time>2017-10-18T13:17:43Z</time>
      </trkpt>
      <trkpt lat="43.58685" lon="6.16457">
        <ele>405.8</ele>
        <time>2017-10-18T13:18:29Z</time>
      </trkpt>
      <trkpt lat="43.58679" lon="6.16445">
        <ele>403</ele>
        <time>2017-10-18T13:18:49Z</time>
      </trkpt>
      <trkpt lat="43.58673" lon="6.16435">
        <ele>399.5</ele>
        <time>2017-10-18T13:19:10Z</time>
      </trkpt>
      <trkpt lat="43.58671" lon="6.16423">
        <ele>398.2</ele>
        <time>2017-10-18T13:19:21Z</time>
      </trkpt>
      <trkpt lat="43.58668" lon="6.1641">
        <ele>397.8</ele>
        <time>2017-10-18T13:19:36Z</time>
      </trkpt>
      <trkpt lat="43.58665" lon="6.16398">
        <ele>397.3</ele>
        <time>2017-10-18T13:19:53Z</time>
      </trkpt>
      <trkpt lat="43.58662" lon="6.16386">
        <ele>397.2</ele>
        <time>2017-10-18T13:20:02Z</time>
      </trkpt>
      <trkpt lat="43.58661" lon="6.16373">
        <ele>396.9</ele>
        <time>2017-10-18T13:20:12Z</time>
      </trkpt>
      <trkpt lat="43.58659" lon="6.16361">
        <ele>396.8</ele>
        <time>2017-10-18T13:20:23Z</time>
      </trkpt>
      <trkpt lat="43.58657" lon="6.16348">
        <ele>396.8</ele>
        <time>2017-10-18T13:20:35Z</time>
      </trkpt>
      <trkpt lat="43.58658" lon="6.16335">
        <ele>397.4</ele>
        <time>2017-10-18T13:20:51Z</time>
      </trkpt>
      <trkpt lat="43.58655" lon="6.16323">
        <ele>397.5</ele>
        <time>2017-10-18T13:21:01Z</time>
      </trkpt>
      <trkpt lat="43.58653" lon="6.16311">
        <ele>397.8</ele>
        <time>2017-10-18T13:21:17Z</time>
      </trkpt>
      <trkpt lat="43.58649" lon="6.16299">
        <ele>397.6</ele>
        <time>2017-10-18T13:21:27Z</time>
      </trkpt>
      <trkpt lat="43.58646" lon="6.16285">
        <ele>397.7</ele>
        <time>2017-10-18T13:21:37Z</time>
      </trkpt>
      <trkpt lat="43.58646" lon="6.16272">
        <ele>397.4</ele>
        <time>2017-10-18T13:21:57Z</time>
      </trkpt>
      <trkpt lat="43.58643" lon="6.1626">
        <ele>397.1</ele>
        <time>2017-10-18T13:22:16Z</time>
      </trkpt>
      <trkpt lat="43.58643" lon="6.16247">
        <ele>397.2</ele>
        <time>2017-10-18T13:22:26Z</time>
      </trkpt>
      <trkpt lat="43.58652" lon="6.16244">
        <ele>397.2</ele>
        <time>2017-10-18T13:22:38Z</time>
      </trkpt>
      <trkpt lat="43.58661" lon="6.16248">
        <ele>397.6</ele>
        <time>2017-10-18T13:22:49Z</time>
      </trkpt>
      <trkpt lat="43.58669" lon="6.16255">
        <ele>397.3</ele>
        <time>2017-10-18T13:23:01Z</time>
      </trkpt>
      <trkpt lat="43.58677" lon="6.16262">
        <ele>397</ele>
        <time>2017-10-18T13:23:13Z</time>
      </trkpt>
      <trkpt lat="43.58686" lon="6.16267">
        <ele>396.8</ele>
        <time>2017-10-18T13:23:23Z</time>
      </trkpt>
      <trkpt lat="43.58694" lon="6.16271">
        <ele>397.4</ele>
        <time>2017-10-18T13:23:36Z</time>
      </trkpt>
      <trkpt lat="43.58704" lon="6.16275">
        <ele>397.8</ele>
        <time>2017-10-18T13:23:54Z</time>
      </trkpt>
      <trkpt lat="43.58713" lon="6.16278">
        <ele>398</ele>
        <time>2017-10-18T13:24:13Z</time>
      </trkpt>
      <trkpt lat="43.58721" lon="6.16283">
        <ele>398.2</ele>
        <time>2017-10-18T13:24:48Z</time>
      </trkpt>
      <trkpt lat="43.5873" lon="6.16289">
        <ele>398.5</ele>
        <time>2017-10-18T13:25:05Z</time>
      </trkpt>
      <trkpt lat="43.58738" lon="6.16293">
        <ele>399</ele>
        <time>2017-10-18T13:25:19Z</time>
      </trkpt>
      <trkpt lat="43.58748" lon="6.16295">
        <ele>399.4</ele>
        <time>2017-10-18T13:25:49Z</time>
      </trkpt>
      <trkpt lat="43.58752" lon="6.16282">
        <ele>399.6</ele>
        <time>2017-10-18T13:26:26Z</time>
      </trkpt>
      <trkpt lat="43.58755" lon="6.1627">
        <ele>399.6</ele>
        <time>2017-10-18T13:26:34Z</time>
      </trkpt>
      <trkpt lat="43.58756" lon="6.16257">
        <ele>399.5</ele>
        <time>2017-10-18T13:26:43Z</time>
      </trkpt>
      <trkpt lat="43.58756" lon="6.16243">
        <ele>399.2</ele>
        <time>2017-10-18T13:26:54Z</time>
      </trkpt>
      <trkpt lat="43.58755" lon="6.1623">
        <ele>399.2</ele>
        <time>2017-10-18T13:27:01Z</time>
      </trkpt>
      <trkpt lat="43.58756" lon="6.16218">
        <ele>399</ele>
        <time>2017-10-18T13:27:09Z</time>
      </trkpt>
      <trkpt lat="43.58757" lon="6.16205">
        <ele>398.7</ele>
        <time>2017-10-18T13:27:17Z</time>
      </trkpt>
      <trkpt lat="43.58757" lon="6.1619">
        <ele>398.6</ele>
        <time>2017-10-18T13:27:25Z</time>
      </trkpt>
      <trkpt lat="43.58758" lon="6.16178">
        <ele>398.1</ele>
        <time>2017-10-18T13:27:35Z</time>
      </trkpt>
      <trkpt lat="43.58759" lon="6.16166">
        <ele>398.7</ele>
        <time>2017-10-18T13:27:45Z</time>
      </trkpt>
      <trkpt lat="43.58759" lon="6.16153">
        <ele>398.6</ele>
        <time>2017-10-18T13:27:54Z</time>
      </trkpt>
      <trkpt lat="43.5876" lon="6.16139">
        <ele>398.7</ele>
        <time>2017-10-18T13:28:07Z</time>
      </trkpt>
      <trkpt lat="43.58761" lon="6.16125">
        <ele>398.8</ele>
        <time>2017-10-18T13:28:15Z</time>
      </trkpt>
      <trkpt lat="43.58762" lon="6.16112">
        <ele>398.6</ele>
        <time>2017-10-18T13:28:23Z</time>
      </trkpt>
      <trkpt lat="43.58763" lon="6.161">
        <ele>398.5</ele>
        <time>2017-10-18T13:28:31Z</time>
      </trkpt>
      <trkpt lat="43.58766" lon="6.16088">
        <ele>398.5</ele>
        <time>2017-10-18T13:28:40Z</time>
      </trkpt>
      <trkpt lat="43.58773" lon="6.16078">
        <ele>398.4</ele>
        <time>2017-10-18T13:28:50Z</time>
      </trkpt>
      <trkpt lat="43.5878" lon="6.16068">
        <ele>398.4</ele>
        <time>2017-10-18T13:28:57Z</time>
      </trkpt>
      <trkpt lat="43.58786" lon="6.16059">
        <ele>398.4</ele>
        <time>2017-10-18T13:29:04Z</time>
      </trkpt>
      <trkpt lat="43.58793" lon="6.16049">
        <ele>398.7</ele>
        <time>2017-10-18T13:29:12Z</time>
      </trkpt>
      <trkpt lat="43.58799" lon="6.16039">
        <ele>398.9</ele>
        <time>2017-10-18T13:29:20Z</time>
      </trkpt>
      <trkpt lat="43.58808" lon="6.16032">
        <ele>399</ele>
        <time>2017-10-18T13:29:28Z</time>
      </trkpt>
      <trkpt lat="43.58815" lon="6.16024">
        <ele>399.2</ele>
        <time>2017-10-18T13:29:38Z</time>
      </trkpt>
      <trkpt lat="43.58823" lon="6.16017">
        <ele>399.3</ele>
        <time>2017-10-18T13:29:48Z</time>
      </trkpt>
      <trkpt lat="43.58831" lon="6.16009">
        <ele>399.9</ele>
        <time>2017-10-18T13:29:59Z</time>
      </trkpt>
      <trkpt lat="43.5884" lon="6.16008">
        <ele>400.5</ele>
        <time>2017-10-18T13:30:10Z</time>
      </trkpt>
      <trkpt lat="43.5885" lon="6.16008">
        <ele>400.8</ele>
        <time>2017-10-18T13:30:18Z</time>
      </trkpt>
      <trkpt lat="43.58859" lon="6.16012">
        <ele>401.3</ele>
        <time>2017-10-18T13:30:28Z</time>
      </trkpt>
      <trkpt lat="43.5885" lon="6.16007">
        <ele>400.9</ele>
        <time>2017-10-18T13:31:52Z</time>
      </trkpt>
      <trkpt lat="43.58859" lon="6.16009">
        <ele>401</ele>
        <time>2017-10-18T13:32:48Z</time>
      </trkpt>
      <trkpt lat="43.58868" lon="6.16011">
        <ele>401.2</ele>
        <time>2017-10-18T13:32:54Z</time>
      </trkpt>
      <trkpt lat="43.58877" lon="6.16012">
        <ele>401.4</ele>
        <time>2017-10-18T13:33:00Z</time>
      </trkpt>
      <trkpt lat="43.58886" lon="6.1601">
        <ele>401.6</ele>
        <time>2017-10-18T13:33:07Z</time>
      </trkpt>
      <trkpt lat="43.58895" lon="6.16008">
        <ele>401.6</ele>
        <time>2017-10-18T13:33:13Z</time>
      </trkpt>
      <trkpt lat="43.58905" lon="6.16005">
        <ele>401.7</ele>
        <time>2017-10-18T13:33:20Z</time>
      </trkpt>
      <trkpt lat="43.58914" lon="6.16">
        <ele>401.8</ele>
        <time>2017-10-18T13:33:28Z</time>
      </trkpt>
      <trkpt lat="43.58923" lon="6.15997">
        <ele>401.7</ele>
        <time>2017-10-18T13:33:35Z</time>
      </trkpt>
      <trkpt lat="43.58932" lon="6.15992">
        <ele>401.9</ele>
        <time>2017-10-18T13:33:42Z</time>
      </trkpt>
      <trkpt lat="43.58941" lon="6.15986">
        <ele>402.2</ele>
        <time>2017-10-18T13:33:50Z</time>
      </trkpt>
      <trkpt lat="43.58949" lon="6.1598">
        <ele>402.2</ele>
        <time>2017-10-18T13:33:58Z</time>
      </trkpt>
      <trkpt lat="43.58958" lon="6.15972">
        <ele>401.7</ele>
        <time>2017-10-18T13:34:06Z</time>
      </trkpt>
      <trkpt lat="43.58966" lon="6.15963">
        <ele>401.7</ele>
        <time>2017-10-18T13:34:14Z</time>
      </trkpt>
      <trkpt lat="43.58971" lon="6.15953">
        <ele>401.5</ele>
        <time>2017-10-18T13:34:24Z</time>
      </trkpt>
      <trkpt lat="43.5898" lon="6.15949">
        <ele>402.3</ele>
        <time>2017-10-18T13:34:43Z</time>
      </trkpt>
      <trkpt lat="43.58972" lon="6.15943">
        <ele>402.2</ele>
        <time>2017-10-18T13:35:45Z</time>
      </trkpt>
      <trkpt lat="43.58963" lon="6.15935">
        <ele>402.2</ele>
        <time>2017-10-18T13:36:00Z</time>
      </trkpt>
      <trkpt lat="43.58956" lon="6.15927">
        <ele>402</ele>
        <time>2017-10-18T13:36:09Z</time>
      </trkpt>
      <trkpt lat="43.58949" lon="6.15918">
        <ele>401.7</ele>
        <time>2017-10-18T13:36:17Z</time>
      </trkpt>
      <trkpt lat="43.58943" lon="6.15909">
        <ele>401.9</ele>
        <time>2017-10-18T13:36:25Z</time>
      </trkpt>
      <trkpt lat="43.58938" lon="6.15897">
        <ele>401.6</ele>
        <time>2017-10-18T13:36:34Z</time>
      </trkpt>
      <trkpt lat="43.58935" lon="6.15885">
        <ele>401.4</ele>
        <time>2017-10-18T13:36:42Z</time>
      </trkpt>
      <trkpt lat="43.58932" lon="6.15873">
        <ele>401.2</ele>
        <time>2017-10-18T13:36:50Z</time>
      </trkpt>
      <trkpt lat="43.58932" lon="6.1586">
        <ele>401.4</ele>
        <time>2017-10-18T13:36:59Z</time>
      </trkpt>
      <trkpt lat="43.58933" lon="6.15848">
        <ele>401.1</ele>
        <time>2017-10-18T13:37:07Z</time>
      </trkpt>
      <trkpt lat="43.58934" lon="6.15835">
        <ele>400.5</ele>
        <time>2017-10-18T13:37:14Z</time>
      </trkpt>
      <trkpt lat="43.58937" lon="6.15823">
        <ele>400</ele>
        <time>2017-10-18T13:37:22Z</time>
      </trkpt>
      <trkpt lat="43.5894" lon="6.1581">
        <ele>400</ele>
        <time>2017-10-18T13:37:31Z</time>
      </trkpt>
      <trkpt lat="43.58945" lon="6.158">
        <ele>400</ele>
        <time>2017-10-18T13:37:49Z</time>
      </trkpt>
      <trkpt lat="43.58953" lon="6.15793">
        <ele>400.2</ele>
        <time>2017-10-18T13:37:59Z</time>
      </trkpt>
      <trkpt lat="43.5896" lon="6.15783">
        <ele>400.4</ele>
        <time>2017-10-18T13:38:08Z</time>
      </trkpt>
      <trkpt lat="43.58965" lon="6.15772">
        <ele>400.8</ele>
        <time>2017-10-18T13:38:16Z</time>
      </trkpt>
      <trkpt lat="43.5897" lon="6.15761">
        <ele>401.1</ele>
        <time>2017-10-18T13:38:25Z</time>
      </trkpt>
      <trkpt lat="43.58974" lon="6.15749">
        <ele>401.3</ele>
        <time>2017-10-18T13:38:34Z</time>
      </trkpt>
      <trkpt lat="43.58979" lon="6.15738">
        <ele>401.6</ele>
        <time>2017-10-18T13:38:43Z</time>
      </trkpt>
      <trkpt lat="43.58984" lon="6.15726">
        <ele>401.6</ele>
        <time>2017-10-18T13:38:52Z</time>
      </trkpt>
      <trkpt lat="43.5899" lon="6.15716">
        <ele>401.3</ele>
        <time>2017-10-18T13:39:01Z</time>
      </trkpt>
      <trkpt lat="43.58996" lon="6.15706">
        <ele>401.8</ele>
        <time>2017-10-18T13:39:10Z</time>
      </trkpt>
      <trkpt lat="43.59005" lon="6.15699">
        <ele>402.5</ele>
        <time>2017-10-18T13:39:19Z</time>
      </trkpt>
      <trkpt lat="43.59013" lon="6.15692">
        <ele>401.9</ele>
        <time>2017-10-18T13:39:28Z</time>
      </trkpt>
      <trkpt lat="43.59022" lon="6.15688">
        <ele>401.8</ele>
        <time>2017-10-18T13:39:37Z</time>
      </trkpt>
      <trkpt lat="43.59031" lon="6.15685">
        <ele>401.5</ele>
        <time>2017-10-18T13:39:45Z</time>
      </trkpt>
      <trkpt lat="43.5904" lon="6.1568">
        <ele>401.8</ele>
        <time>2017-10-18T13:39:53Z</time>
      </trkpt>
      <trkpt lat="43.59048" lon="6.15675">
        <ele>402.2</ele>
        <time>2017-10-18T13:40:01Z</time>
      </trkpt>
      <trkpt lat="43.59056" lon="6.15667">
        <ele>402.2</ele>
        <time>2017-10-18T13:40:10Z</time>
      </trkpt>
      <trkpt lat="43.59063" lon="6.15658">
        <ele>402.5</ele>
        <time>2017-10-18T13:40:18Z</time>
      </trkpt>
      <trkpt lat="43.59068" lon="6.15648">
        <ele>402.6</ele>
        <time>2017-10-18T13:40:26Z</time>
      </trkpt>
      <trkpt lat="43.59073" lon="6.15636">
        <ele>402.5</ele>
        <time>2017-10-18T13:40:34Z</time>
      </trkpt>
      <trkpt lat="43.59076" lon="6.15624">
        <ele>402.6</ele>
        <time>2017-10-18T13:40:42Z</time>
      </trkpt>
      <trkpt lat="43.59078" lon="6.15611">
        <ele>402.8</ele>
        <time>2017-10-18T13:40:51Z</time>
      </trkpt>
      <trkpt lat="43.59078" lon="6.15598">
        <ele>402.9</ele>
        <time>2017-10-18T13:41:00Z</time>
      </trkpt>
      <trkpt lat="43.59071" lon="6.1559">
        <ele>402.7</ele>
        <time>2017-10-18T13:41:37Z</time>
      </trkpt>
      <trkpt lat="43.59064" lon="6.1558">
        <ele>402.7</ele>
        <time>2017-10-18T13:43:01Z</time>
      </trkpt>
      <trkpt lat="43.59058" lon="6.1557">
        <ele>402.8</ele>
        <time>2017-10-18T13:43:08Z</time>
      </trkpt>
      <trkpt lat="43.59052" lon="6.15559">
        <ele>402.7</ele>
        <time>2017-10-18T13:43:17Z</time>
      </trkpt>
      <trkpt lat="43.59047" lon="6.15549">
        <ele>402.6</ele>
        <time>2017-10-18T13:43:26Z</time>
      </trkpt>
      <trkpt lat="43.59042" lon="6.15537">
        <ele>403</ele>
        <time>2017-10-18T13:43:36Z</time>
      </trkpt>
      <trkpt lat="43.59038" lon="6.15525">
        <ele>403.3</ele>
        <time>2017-10-18T13:43:44Z</time>
      </trkpt>
      <trkpt lat="43.59035" lon="6.15513">
        <ele>403.4</ele>
        <time>2017-10-18T13:43:52Z</time>
      </trkpt>
      <trkpt lat="43.59032" lon="6.155">
        <ele>403.4</ele>
        <time>2017-10-18T13:44:00Z</time>
      </trkpt>
      <trkpt lat="43.59026" lon="6.15488">
        <ele>403.8</ele>
        <time>2017-10-18T13:44:08Z</time>
      </trkpt>
      <trkpt lat="43.59021" lon="6.15479">
        <ele>403.8</ele>
        <time>2017-10-18T13:44:16Z</time>
      </trkpt>
      <trkpt lat="43.59014" lon="6.1547">
        <ele>403.4</ele>
        <time>2017-10-18T13:44:24Z</time>
      </trkpt>
      <trkpt lat="43.59008" lon="6.1546">
        <ele>403.3</ele>
        <time>2017-10-18T13:44:32Z</time>
      </trkpt>
      <trkpt lat="43.59001" lon="6.15449">
        <ele>403.5</ele>
        <time>2017-10-18T13:44:41Z</time>
      </trkpt>
      <trkpt lat="43.58994" lon="6.15439">
        <ele>403.8</ele>
        <time>2017-10-18T13:44:49Z</time>
      </trkpt>
      <trkpt lat="43.5899" lon="6.15429">
        <ele>403.9</ele>
        <time>2017-10-18T13:44:56Z</time>
      </trkpt>
      <trkpt lat="43.58984" lon="6.15419">
        <ele>404</ele>
        <time>2017-10-18T13:45:03Z</time>
      </trkpt>
      <trkpt lat="43.58977" lon="6.1541">
        <ele>404.1</ele>
        <time>2017-10-18T13:45:10Z</time>
      </trkpt>
      <trkpt lat="43.5897" lon="6.15402">
        <ele>403.8</ele>
        <time>2017-10-18T13:45:18Z</time>
      </trkpt>
      <trkpt lat="43.58962" lon="6.15393">
        <ele>403.2</ele>
        <time>2017-10-18T13:45:27Z</time>
      </trkpt>
      <trkpt lat="43.58955" lon="6.15384">
        <ele>402.8</ele>
        <time>2017-10-18T13:45:36Z</time>
      </trkpt>
      <trkpt lat="43.5895" lon="6.15373">
        <ele>402.5</ele>
        <time>2017-10-18T13:45:45Z</time>
      </trkpt>
      <trkpt lat="43.58944" lon="6.15362">
        <ele>402.8</ele>
        <time>2017-10-18T13:45:53Z</time>
      </trkpt>
      <trkpt lat="43.58938" lon="6.15352">
        <ele>402.9</ele>
        <time>2017-10-18T13:46:02Z</time>
      </trkpt>
      <trkpt lat="43.58932" lon="6.15342">
        <ele>402.9</ele>
        <time>2017-10-18T13:46:10Z</time>
      </trkpt>
      <trkpt lat="43.58926" lon="6.15333">
        <ele>403.1</ele>
        <time>2017-10-18T13:46:18Z</time>
      </trkpt>
      <trkpt lat="43.5892" lon="6.15321">
        <ele>402.9</ele>
        <time>2017-10-18T13:46:27Z</time>
      </trkpt>
      <trkpt lat="43.58916" lon="6.1531">
        <ele>402.7</ele>
        <time>2017-10-18T13:46:35Z</time>
      </trkpt>
      <trkpt lat="43.58913" lon="6.15298">
        <ele>402.6</ele>
        <time>2017-10-18T13:46:43Z</time>
      </trkpt>
      <trkpt lat="43.58912" lon="6.15285">
        <ele>402.2</ele>
        <time>2017-10-18T13:46:52Z</time>
      </trkpt>
      <trkpt lat="43.58911" lon="6.15272">
        <ele>402.2</ele>
        <time>2017-10-18T13:47:00Z</time>
      </trkpt>
      <trkpt lat="43.58906" lon="6.1526">
        <ele>401.8</ele>
        <time>2017-10-18T13:47:08Z</time>
      </trkpt>
      <trkpt lat="43.58898" lon="6.15252">
        <ele>400.9</ele>
        <time>2017-10-18T13:47:17Z</time>
      </trkpt>
      <trkpt lat="43.58889" lon="6.15253">
        <ele>400</ele>
        <time>2017-10-18T13:47:28Z</time>
      </trkpt>
      <trkpt lat="43.5888" lon="6.15258">
        <ele>399.8</ele>
        <time>2017-10-18T13:47:37Z</time>
      </trkpt>
      <trkpt lat="43.58871" lon="6.1526">
        <ele>399.9</ele>
        <time>2017-10-18T13:47:45Z</time>
      </trkpt>
      <trkpt lat="43.58861" lon="6.15263">
        <ele>399.7</ele>
        <time>2017-10-18T13:47:54Z</time>
      </trkpt>
      <trkpt lat="43.58862" lon="6.15276">
        <ele>399.9</ele>
        <time>2017-10-18T13:48:31Z</time>
      </trkpt>
      <trkpt lat="43.58859" lon="6.15288">
        <ele>400.1</ele>
        <time>2017-10-18T13:48:43Z</time>
      </trkpt>
      <trkpt lat="43.58857" lon="6.15301">
        <ele>400</ele>
        <time>2017-10-18T13:48:59Z</time>
      </trkpt>
      <trkpt lat="43.58862" lon="6.15312">
        <ele>399.9</ele>
        <time>2017-10-18T13:49:12Z</time>
      </trkpt>
      <trkpt lat="43.58859" lon="6.15325">
        <ele>399.9</ele>
        <time>2017-10-18T13:49:21Z</time>
      </trkpt>
      <trkpt lat="43.58851" lon="6.15332">
        <ele>399.9</ele>
        <time>2017-10-18T13:49:31Z</time>
      </trkpt>
      <trkpt lat="43.58848" lon="6.15345">
        <ele>399.9</ele>
        <time>2017-10-18T13:49:43Z</time>
      </trkpt>
      <trkpt lat="43.58846" lon="6.15357">
        <ele>399.9</ele>
        <time>2017-10-18T13:49:55Z</time>
      </trkpt>
      <trkpt lat="43.5884" lon="6.15368">
        <ele>400.2</ele>
        <time>2017-10-18T13:50:06Z</time>
      </trkpt>
      <trkpt lat="43.58844" lon="6.15381">
        <ele>400</ele>
        <time>2017-10-18T13:50:18Z</time>
      </trkpt>
      <trkpt lat="43.5884" lon="6.15393">
        <ele>400.3</ele>
        <time>2017-10-18T13:52:23Z</time>
      </trkpt>
      <trkpt lat="43.5884" lon="6.15406">
        <ele>400.1</ele>
        <time>2017-10-18T13:52:35Z</time>
      </trkpt>
      <trkpt lat="43.58835" lon="6.15417">
        <ele>399.6</ele>
        <time>2017-10-18T13:53:14Z</time>
      </trkpt>
      <trkpt lat="43.58828" lon="6.15426">
        <ele>399.7</ele>
        <time>2017-10-18T13:53:36Z</time>
      </trkpt>
      <trkpt lat="43.5882" lon="6.15433">
        <ele>399.8</ele>
        <time>2017-10-18T13:53:57Z</time>
      </trkpt>
      <trkpt lat="43.58821" lon="6.15445">
        <ele>400.2</ele>
        <time>2017-10-18T13:54:16Z</time>
      </trkpt>
      <trkpt lat="43.58823" lon="6.15458">
        <ele>400.2</ele>
        <time>2017-10-18T13:55:18Z</time>
      </trkpt>
      <trkpt lat="43.58818" lon="6.15468">
        <ele>399.9</ele>
        <time>2017-10-18T13:56:06Z</time>
      </trkpt>
      <trkpt lat="43.58812" lon="6.15478">
        <ele>400.2</ele>
        <time>2017-10-18T13:56:46Z</time>
      </trkpt>
      <trkpt lat="43.58808" lon="6.1549">
        <ele>400.1</ele>
        <time>2017-10-18T13:56:58Z</time>
      </trkpt>
      <trkpt lat="43.58799" lon="6.15492">
        <ele>400.6</ele>
        <time>2017-10-18T13:57:13Z</time>
      </trkpt>
      <trkpt lat="43.58792" lon="6.155">
        <ele>400.4</ele>
        <time>2017-10-18T13:58:03Z</time>
      </trkpt>
      <trkpt lat="43.58795" lon="6.15511">
        <ele>400.8</ele>
        <time>2017-10-18T13:58:38Z</time>
      </trkpt>
      <trkpt lat="43.58788" lon="6.1552">
        <ele>400.4</ele>
        <time>2017-10-18T13:58:48Z</time>
      </trkpt>
      <trkpt lat="43.58778" lon="6.15523">
        <ele>399.5</ele>
        <time>2017-10-18T13:58:58Z</time>
      </trkpt>
      <trkpt lat="43.58769" lon="6.15526">
        <ele>399.3</ele>
        <time>2017-10-18T13:59:06Z</time>
      </trkpt>
      <trkpt lat="43.5876" lon="6.15532">
        <ele>400.1</ele>
        <time>2017-10-18T13:59:14Z</time>
      </trkpt>
      <trkpt lat="43.58751" lon="6.15535">
        <ele>400</ele>
        <time>2017-10-18T13:59:23Z</time>
      </trkpt>
      <trkpt lat="43.58742" lon="6.1554">
        <ele>400.3</ele>
        <time>2017-10-18T13:59:32Z</time>
      </trkpt>
      <trkpt lat="43.58733" lon="6.15545">
        <ele>400.6</ele>
        <time>2017-10-18T13:59:42Z</time>
      </trkpt>
      <trkpt lat="43.58725" lon="6.15553">
        <ele>400.3</ele>
        <time>2017-10-18T13:59:51Z</time>
      </trkpt>
      <trkpt lat="43.58718" lon="6.15562">
        <ele>400.7</ele>
        <time>2017-10-18T14:00:03Z</time>
      </trkpt>
      <trkpt lat="43.58712" lon="6.15572">
        <ele>401.2</ele>
        <time>2017-10-18T14:00:12Z</time>
      </trkpt>
      <trkpt lat="43.58706" lon="6.15582">
        <ele>400.7</ele>
        <time>2017-10-18T14:00:22Z</time>
      </trkpt>
      <trkpt lat="43.587" lon="6.15592">
        <ele>400.6</ele>
        <time>2017-10-18T14:00:31Z</time>
      </trkpt>
      <trkpt lat="43.58694" lon="6.15602">
        <ele>400.7</ele>
        <time>2017-10-18T14:00:40Z</time>
      </trkpt>
      <trkpt lat="43.58689" lon="6.15613">
        <ele>400.9</ele>
        <time>2017-10-18T14:00:48Z</time>
      </trkpt>
      <trkpt lat="43.58683" lon="6.15624">
        <ele>400.6</ele>
        <time>2017-10-18T14:00:57Z</time>
      </trkpt>
      <trkpt lat="43.58677" lon="6.15633">
        <ele>400.3</ele>
        <time>2017-10-18T14:01:04Z</time>
      </trkpt>
      <trkpt lat="43.58671" lon="6.15644">
        <ele>400.4</ele>
        <time>2017-10-18T14:01:14Z</time>
      </trkpt>
      <trkpt lat="43.58666" lon="6.15655">
        <ele>400.5</ele>
        <time>2017-10-18T14:01:23Z</time>
      </trkpt>
      <trkpt lat="43.58661" lon="6.15667">
        <ele>400.2</ele>
        <time>2017-10-18T14:01:33Z</time>
      </trkpt>
      <trkpt lat="43.58656" lon="6.15679">
        <ele>400.2</ele>
        <time>2017-10-18T14:01:41Z</time>
      </trkpt>
      <trkpt lat="43.58652" lon="6.1569">
        <ele>400.5</ele>
        <time>2017-10-18T14:01:49Z</time>
      </trkpt>
      <trkpt lat="43.58646" lon="6.157">
        <ele>400.5</ele>
        <time>2017-10-18T14:02:01Z</time>
      </trkpt>
      <trkpt lat="43.58637" lon="6.15698">
        <ele>401.6</ele>
        <time>2017-10-18T14:02:17Z</time>
      </trkpt>
      <trkpt lat="43.58628" lon="6.15693">
        <ele>401.4</ele>
        <time>2017-10-18T14:02:47Z</time>
      </trkpt>
      <trkpt lat="43.58621" lon="6.15683">
        <ele>400.6</ele>
        <time>2017-10-18T14:04:12Z</time>
      </trkpt>
      <trkpt lat="43.58614" lon="6.15674">
        <ele>400.8</ele>
        <time>2017-10-18T14:04:21Z</time>
      </trkpt>
      <trkpt lat="43.58607" lon="6.15665">
        <ele>400.9</ele>
        <time>2017-10-18T14:04:32Z</time>
      </trkpt>
      <trkpt lat="43.586" lon="6.15656">
        <ele>401.1</ele>
        <time>2017-10-18T14:04:42Z</time>
      </trkpt>
      <trkpt lat="43.58592" lon="6.15647">
        <ele>400.6</ele>
        <time>2017-10-18T14:04:51Z</time>
      </trkpt>
      <trkpt lat="43.58585" lon="6.15639">
        <ele>400.8</ele>
        <time>2017-10-18T14:05:01Z</time>
      </trkpt>
      <trkpt lat="43.58578" lon="6.1563">
        <ele>401.1</ele>
        <time>2017-10-18T14:05:10Z</time>
      </trkpt>
      <trkpt lat="43.5857" lon="6.15623">
        <ele>400.8</ele>
        <time>2017-10-18T14:05:21Z</time>
      </trkpt>
      <trkpt lat="43.58563" lon="6.15613">
        <ele>401.1</ele>
        <time>2017-10-18T14:05:30Z</time>
      </trkpt>
      <trkpt lat="43.58557" lon="6.15603">
        <ele>401.2</ele>
        <time>2017-10-18T14:05:40Z</time>
      </trkpt>
      <trkpt lat="43.58549" lon="6.15594">
        <ele>401.1</ele>
        <time>2017-10-18T14:05:50Z</time>
      </trkpt>
      <trkpt lat="43.58542" lon="6.15586">
        <ele>401.2</ele>
        <time>2017-10-18T14:05:59Z</time>
      </trkpt>
      <trkpt lat="43.58534" lon="6.15577">
        <ele>401</ele>
        <time>2017-10-18T14:06:10Z</time>
      </trkpt>
      <trkpt lat="43.58527" lon="6.15569">
        <ele>401.2</ele>
        <time>2017-10-18T14:06:19Z</time>
      </trkpt>
      <trkpt lat="43.5852" lon="6.1556">
        <ele>401.1</ele>
        <time>2017-10-18T14:06:29Z</time>
      </trkpt>
      <trkpt lat="43.58513" lon="6.15552">
        <ele>400.6</ele>
        <time>2017-10-18T14:06:38Z</time>
      </trkpt>
      <trkpt lat="43.58505" lon="6.15543">
        <ele>401.3</ele>
        <time>2017-10-18T14:06:47Z</time>
      </trkpt>
      <trkpt lat="43.58498" lon="6.15534">
        <ele>401.3</ele>
        <time>2017-10-18T14:06:56Z</time>
      </trkpt>
      <trkpt lat="43.58491" lon="6.15525">
        <ele>401.5</ele>
        <time>2017-10-18T14:07:05Z</time>
      </trkpt>
      <trkpt lat="43.58484" lon="6.15515">
        <ele>401.9</ele>
        <time>2017-10-18T14:07:14Z</time>
      </trkpt>
      <trkpt lat="43.58477" lon="6.15506">
        <ele>402</ele>
        <time>2017-10-18T14:07:23Z</time>
      </trkpt>
      <trkpt lat="43.58471" lon="6.15496">
        <ele>402.2</ele>
        <time>2017-10-18T14:07:31Z</time>
      </trkpt>
      <trkpt lat="43.58462" lon="6.15493">
        <ele>402.7</ele>
        <time>2017-10-18T14:07:41Z</time>
      </trkpt>
      <trkpt lat="43.58452" lon="6.1549">
        <ele>403.1</ele>
        <time>2017-10-18T14:07:50Z</time>
      </trkpt>
      <trkpt lat="43.58443" lon="6.15483">
        <ele>403.7</ele>
        <time>2017-10-18T14:07:59Z</time>
      </trkpt>
      <trkpt lat="43.58434" lon="6.1548">
        <ele>404.3</ele>
        <time>2017-10-18T14:08:08Z</time>
      </trkpt>
      <trkpt lat="43.58424" lon="6.15478">
        <ele>405</ele>
        <time>2017-10-18T14:08:18Z</time>
      </trkpt>
      <trkpt lat="43.58415" lon="6.15476">
        <ele>405.7</ele>
        <time>2017-10-18T14:08:27Z</time>
      </trkpt>
      <trkpt lat="43.58406" lon="6.1547">
        <ele>406.4</ele>
        <time>2017-10-18T14:08:35Z</time>
      </trkpt>
      <trkpt lat="43.584" lon="6.15459">
        <ele>407.1</ele>
        <time>2017-10-18T14:08:43Z</time>
      </trkpt>
      <trkpt lat="43.58397" lon="6.15446">
        <ele>407.4</ele>
        <time>2017-10-18T14:08:52Z</time>
      </trkpt>
      <trkpt lat="43.58393" lon="6.15435">
        <ele>407.5</ele>
        <time>2017-10-18T14:09:02Z</time>
      </trkpt>
      <trkpt lat="43.58384" lon="6.15428">
        <ele>407.6</ele>
        <time>2017-10-18T14:09:12Z</time>
      </trkpt>
      <trkpt lat="43.58375" lon="6.15426">
        <ele>407.3</ele>
        <time>2017-10-18T14:09:20Z</time>
      </trkpt>
      <trkpt lat="43.58365" lon="6.15431">
        <ele>407.6</ele>
        <time>2017-10-18T14:09:29Z</time>
      </trkpt>
      <trkpt lat="43.58361" lon="6.15443">
        <ele>407.6</ele>
        <time>2017-10-18T14:09:38Z</time>
      </trkpt>
      <trkpt lat="43.5836" lon="6.15457">
        <ele>407.3</ele>
        <time>2017-10-18T14:10:01Z</time>
      </trkpt>
      <trkpt lat="43.58358" lon="6.1547">
        <ele>407.1</ele>
        <time>2017-10-18T14:10:09Z</time>
      </trkpt>
      <trkpt lat="43.58357" lon="6.15483">
        <ele>406.5</ele>
        <time>2017-10-18T14:10:18Z</time>
      </trkpt>
      <trkpt lat="43.58355" lon="6.15495">
        <ele>406.5</ele>
        <time>2017-10-18T14:10:27Z</time>
      </trkpt>
      <trkpt lat="43.58355" lon="6.15508">
        <ele>406.2</ele>
        <time>2017-10-18T14:10:36Z</time>
      </trkpt>
      <trkpt lat="43.58353" lon="6.15521">
        <ele>405.8</ele>
        <time>2017-10-18T14:10:45Z</time>
      </trkpt>
      <trkpt lat="43.58354" lon="6.15534">
        <ele>405.5</ele>
        <time>2017-10-18T14:10:56Z</time>
      </trkpt>
      <trkpt lat="43.58352" lon="6.15547">
        <ele>406.1</ele>
        <time>2017-10-18T14:11:05Z</time>
      </trkpt>
      <trkpt lat="43.5835" lon="6.1556">
        <ele>406</ele>
        <time>2017-10-18T14:11:15Z</time>
      </trkpt>
      <trkpt lat="43.5835" lon="6.15573">
        <ele>406.2</ele>
        <time>2017-10-18T14:11:24Z</time>
      </trkpt>
      <trkpt lat="43.58347" lon="6.15586">
        <ele>406.3</ele>
        <time>2017-10-18T14:11:32Z</time>
      </trkpt>
      <trkpt lat="43.58341" lon="6.15595">
        <ele>406.3</ele>
        <time>2017-10-18T14:11:40Z</time>
      </trkpt>
      <trkpt lat="43.58333" lon="6.15603">
        <ele>406.7</ele>
        <time>2017-10-18T14:11:49Z</time>
      </trkpt>
      <trkpt lat="43.58326" lon="6.15611">
        <ele>407.1</ele>
        <time>2017-10-18T14:11:58Z</time>
      </trkpt>
      <trkpt lat="43.58324" lon="6.15623">
        <ele>407.7</ele>
        <time>2017-10-18T14:12:08Z</time>
      </trkpt>
      <trkpt lat="43.58315" lon="6.15631">
        <ele>406.2</ele>
        <time>2017-10-18T14:13:48Z</time>
      </trkpt>
      <trkpt lat="43.58308" lon="6.15641">
        <ele>407.1</ele>
        <time>2017-10-18T14:13:51Z</time>
      </trkpt>
      <trkpt lat="43.58302" lon="6.15652">
        <ele>407.9</ele>
        <time>2017-10-18T14:13:55Z</time>
      </trkpt>
      <trkpt lat="43.58294" lon="6.15663">
        <ele>408.3</ele>
        <time>2017-10-18T14:13:59Z</time>
      </trkpt>
      <trkpt lat="43.58291" lon="6.15676">
        <ele>408.8</ele>
        <time>2017-10-18T14:14:03Z</time>
      </trkpt>
      <trkpt lat="43.5829" lon="6.15691">
        <ele>410</ele>
        <time>2017-10-18T14:14:08Z</time>
      </trkpt>
      <trkpt lat="43.58281" lon="6.15696">
        <ele>410.7</ele>
        <time>2017-10-18T14:14:13Z</time>
      </trkpt>
      <trkpt lat="43.58271" lon="6.15693">
        <ele>411.5</ele>
        <time>2017-10-18T14:14:18Z</time>
      </trkpt>
      <trkpt lat="43.58261" lon="6.15688">
        <ele>411.6</ele>
        <time>2017-10-18T14:14:24Z</time>
      </trkpt>
      <trkpt lat="43.58251" lon="6.15684">
        <ele>412</ele>
        <time>2017-10-18T14:14:29Z</time>
      </trkpt>
      <trkpt lat="43.58241" lon="6.15688">
        <ele>412</ele>
        <time>2017-10-18T14:14:35Z</time>
      </trkpt>
      <trkpt lat="43.58235" lon="6.15698">
        <ele>412.1</ele>
        <time>2017-10-18T14:14:42Z</time>
      </trkpt>
      <trkpt lat="43.58226" lon="6.15703">
        <ele>413</ele>
        <time>2017-10-18T14:14:50Z</time>
      </trkpt>
      <trkpt lat="43.58217" lon="6.15705">
        <ele>414.3</ele>
        <time>2017-10-18T14:14:58Z</time>
      </trkpt>
      <trkpt lat="43.58209" lon="6.15709">
        <ele>415.3</ele>
        <time>2017-10-18T14:15:06Z</time>
      </trkpt>
      <trkpt lat="43.58199" lon="6.15713">
        <ele>415.9</ele>
        <time>2017-10-18T14:15:14Z</time>
      </trkpt>
      <trkpt lat="43.58191" lon="6.15718">
        <ele>416.1</ele>
        <time>2017-10-18T14:15:21Z</time>
      </trkpt>
      <trkpt lat="43.58181" lon="6.15722">
        <ele>417.4</ele>
        <time>2017-10-18T14:15:28Z</time>
      </trkpt>
      <trkpt lat="43.58173" lon="6.15727">
        <ele>417.6</ele>
        <time>2017-10-18T14:15:35Z</time>
      </trkpt>
      <trkpt lat="43.58165" lon="6.15737">
        <ele>418.3</ele>
        <time>2017-10-18T14:15:43Z</time>
      </trkpt>
      <trkpt lat="43.58166" lon="6.1575">
        <ele>419.5</ele>
        <time>2017-10-18T14:15:51Z</time>
      </trkpt>
      <trkpt lat="43.5817" lon="6.15761">
        <ele>420.2</ele>
        <time>2017-10-18T14:15:57Z</time>
      </trkpt>
      <trkpt lat="43.58178" lon="6.1577">
        <ele>420.3</ele>
        <time>2017-10-18T14:16:05Z</time>
      </trkpt>
      <trkpt lat="43.58187" lon="6.15776">
        <ele>420.5</ele>
        <time>2017-10-18T14:16:12Z</time>
      </trkpt>
      <trkpt lat="43.58191" lon="6.15789">
        <ele>420.4</ele>
        <time>2017-10-18T14:16:20Z</time>
      </trkpt>
      <trkpt lat="43.58196" lon="6.158">
        <ele>420.5</ele>
        <time>2017-10-18T14:16:26Z</time>
      </trkpt>
      <trkpt lat="43.58202" lon="6.15809">
        <ele>420.8</ele>
        <time>2017-10-18T14:16:32Z</time>
      </trkpt>
      <trkpt lat="43.58209" lon="6.15819">
        <ele>420.8</ele>
        <time>2017-10-18T14:16:38Z</time>
      </trkpt>
      <trkpt lat="43.58215" lon="6.1583">
        <ele>420.6</ele>
        <time>2017-10-18T14:16:45Z</time>
      </trkpt>
      <trkpt lat="43.58219" lon="6.15842">
        <ele>420.4</ele>
        <time>2017-10-18T14:16:52Z</time>
      </trkpt>
      <trkpt lat="43.58222" lon="6.15854">
        <ele>420.1</ele>
        <time>2017-10-18T14:16:58Z</time>
      </trkpt>
      <trkpt lat="43.58228" lon="6.15864">
        <ele>420.2</ele>
        <time>2017-10-18T14:17:04Z</time>
      </trkpt>
      <trkpt lat="43.58233" lon="6.15874">
        <ele>420.6</ele>
        <time>2017-10-18T14:17:11Z</time>
      </trkpt>
      <trkpt lat="43.58238" lon="6.15885">
        <ele>420.7</ele>
        <time>2017-10-18T14:17:19Z</time>
      </trkpt>
      <trkpt lat="43.58237" lon="6.15898">
        <ele>421.5</ele>
        <time>2017-10-18T14:17:33Z</time>
      </trkpt>
      <trkpt lat="43.58238" lon="6.15911">
        <ele>423</ele>
        <time>2017-10-18T14:19:14Z</time>
      </trkpt>
      <trkpt lat="43.58238" lon="6.15923">
        <ele>423.3</ele>
        <time>2017-10-18T14:22:13Z</time>
      </trkpt>
      <trkpt lat="43.58236" lon="6.15937">
        <ele>424.4</ele>
        <time>2017-10-18T14:22:20Z</time>
      </trkpt>
      <trkpt lat="43.58235" lon="6.1595">
        <ele>425.3</ele>
        <time>2017-10-18T14:22:27Z</time>
      </trkpt>
      <trkpt lat="43.58235" lon="6.15962">
        <ele>426.6</ele>
        <time>2017-10-18T14:22:34Z</time>
      </trkpt>
      <trkpt lat="43.58234" lon="6.15976">
        <ele>427.5</ele>
        <time>2017-10-18T14:22:41Z</time>
      </trkpt>
      <trkpt lat="43.58233" lon="6.15989">
        <ele>428</ele>
        <time>2017-10-18T14:22:48Z</time>
      </trkpt>
      <trkpt lat="43.58235" lon="6.16002">
        <ele>428.8</ele>
        <time>2017-10-18T14:22:54Z</time>
      </trkpt>
      <trkpt lat="43.58234" lon="6.16014">
        <ele>430.3</ele>
        <time>2017-10-18T14:23:00Z</time>
      </trkpt>
      <trkpt lat="43.5823" lon="6.16026">
        <ele>431.9</ele>
        <time>2017-10-18T14:23:07Z</time>
      </trkpt>
      <trkpt lat="43.58229" lon="6.16039">
        <ele>433.4</ele>
        <time>2017-10-18T14:23:14Z</time>
      </trkpt>
      <trkpt lat="43.58229" lon="6.16052">
        <ele>434.7</ele>
        <time>2017-10-18T14:23:21Z</time>
      </trkpt>
      <trkpt lat="43.5823" lon="6.16064">
        <ele>436.6</ele>
        <time>2017-10-18T14:23:28Z</time>
      </trkpt>
      <trkpt lat="43.58221" lon="6.16059">
        <ele>439.6</ele>
        <time>2017-10-18T14:23:39Z</time>
      </trkpt>
      <trkpt lat="43.58214" lon="6.16049">
        <ele>441.5</ele>
        <time>2017-10-18T14:23:48Z</time>
      </trkpt>
      <trkpt lat="43.58205" lon="6.16045">
        <ele>442.5</ele>
        <time>2017-10-18T14:24:58Z</time>
      </trkpt>
      <trkpt lat="43.582" lon="6.16035">
        <ele>444.4</ele>
        <time>2017-10-18T14:25:09Z</time>
      </trkpt>
      <trkpt lat="43.58197" lon="6.16023">
        <ele>446.1</ele>
        <time>2017-10-18T14:25:22Z</time>
      </trkpt>
      <trkpt lat="43.58191" lon="6.16013">
        <ele>447.9</ele>
        <time>2017-10-18T14:26:28Z</time>
      </trkpt>
      <trkpt lat="43.58184" lon="6.16004">
        <ele>450</ele>
        <time>2017-10-18T14:27:44Z</time>
      </trkpt>
      <trkpt lat="43.58174" lon="6.15999">
        <ele>451.6</ele>
        <time>2017-10-18T14:27:55Z</time>
      </trkpt>
      <trkpt lat="43.58165" lon="6.15996">
        <ele>453.1</ele>
        <time>2017-10-18T14:28:41Z</time>
      </trkpt>
      <trkpt lat="43.58158" lon="6.15987">
        <ele>454</ele>
        <time>2017-10-18T14:28:52Z</time>
      </trkpt>
      <trkpt lat="43.5815" lon="6.1598">
        <ele>454.4</ele>
        <time>2017-10-18T14:29:00Z</time>
      </trkpt>
      <trkpt lat="43.58141" lon="6.15975">
        <ele>454.6</ele>
        <time>2017-10-18T14:29:08Z</time>
      </trkpt>
      <trkpt lat="43.58131" lon="6.15974">
        <ele>456.3</ele>
        <time>2017-10-18T14:29:18Z</time>
      </trkpt>
      <trkpt lat="43.58121" lon="6.15977">
        <ele>458.3</ele>
        <time>2017-10-18T14:29:29Z</time>
      </trkpt>
      <trkpt lat="43.58113" lon="6.15983">
        <ele>460.4</ele>
        <time>2017-10-18T14:29:40Z</time>
      </trkpt>
      <trkpt lat="43.58104" lon="6.1599">
        <ele>462.1</ele>
        <time>2017-10-18T14:29:52Z</time>
      </trkpt>
      <trkpt lat="43.58097" lon="6.15999">
        <ele>463.5</ele>
        <time>2017-10-18T14:30:00Z</time>
      </trkpt>
      <trkpt lat="43.58088" lon="6.15996">
        <ele>465.2</ele>
        <time>2017-10-18T14:30:13Z</time>
      </trkpt>
      <trkpt lat="43.58079" lon="6.15994">
        <ele>466.1</ele>
        <time>2017-10-18T14:30:21Z</time>
      </trkpt>
      <trkpt lat="43.58072" lon="6.15987">
        <ele>466.7</ele>
        <time>2017-10-18T14:30:29Z</time>
      </trkpt>
      <trkpt lat="43.58063" lon="6.15983">
        <ele>466.3</ele>
        <time>2017-10-18T14:32:07Z</time>
      </trkpt>
      <trkpt lat="43.58054" lon="6.15982">
        <ele>466.6</ele>
        <time>2017-10-18T14:32:45Z</time>
      </trkpt>
      <trkpt lat="43.58046" lon="6.1599">
        <ele>466.5</ele>
        <time>2017-10-18T14:33:19Z</time>
      </trkpt>
      <trkpt lat="43.58037" lon="6.15993">
        <ele>465.8</ele>
        <time>2017-10-18T14:33:27Z</time>
      </trkpt>
      <trkpt lat="43.58028" lon="6.15996">
        <ele>465.6</ele>
        <time>2017-10-18T14:33:35Z</time>
      </trkpt>
      <trkpt lat="43.58017" lon="6.15996">
        <ele>465.4</ele>
        <time>2017-10-18T14:33:44Z</time>
      </trkpt>
      <trkpt lat="43.58008" lon="6.15997">
        <ele>465.2</ele>
        <time>2017-10-18T14:33:52Z</time>
      </trkpt>
      <trkpt lat="43.57999" lon="6.15999">
        <ele>464.7</ele>
        <time>2017-10-18T14:33:59Z</time>
      </trkpt>
      <trkpt lat="43.5799" lon="6.16001">
        <ele>464.2</ele>
        <time>2017-10-18T14:34:08Z</time>
      </trkpt>
      <trkpt lat="43.5798" lon="6.16005">
        <ele>463.7</ele>
        <time>2017-10-18T14:34:15Z</time>
      </trkpt>
      <trkpt lat="43.57972" lon="6.16009">
        <ele>463.5</ele>
        <time>2017-10-18T14:34:22Z</time>
      </trkpt>
      <trkpt lat="43.57963" lon="6.16015">
        <ele>463.2</ele>
        <time>2017-10-18T14:34:29Z</time>
      </trkpt>
      <trkpt lat="43.57955" lon="6.1602">
        <ele>462.6</ele>
        <time>2017-10-18T14:34:36Z</time>
      </trkpt>
      <trkpt lat="43.57947" lon="6.16027">
        <ele>462.5</ele>
        <time>2017-10-18T14:34:44Z</time>
      </trkpt>
      <trkpt lat="43.57939" lon="6.16032">
        <ele>462.3</ele>
        <time>2017-10-18T14:34:52Z</time>
      </trkpt>
      <trkpt lat="43.5793" lon="6.16036">
        <ele>462.1</ele>
        <time>2017-10-18T14:35:00Z</time>
      </trkpt>
      <trkpt lat="43.57921" lon="6.1604">
        <ele>461.8</ele>
        <time>2017-10-18T14:35:07Z</time>
      </trkpt>
      <trkpt lat="43.57914" lon="6.16047">
        <ele>460.9</ele>
        <time>2017-10-18T14:35:16Z</time>
      </trkpt>
      <trkpt lat="43.57905" lon="6.16052">
        <ele>460.8</ele>
        <time>2017-10-18T14:35:24Z</time>
      </trkpt>
      <trkpt lat="43.57896" lon="6.16057">
        <ele>460.6</ele>
        <time>2017-10-18T14:35:33Z</time>
      </trkpt>
      <trkpt lat="43.57888" lon="6.16062">
        <ele>460.3</ele>
        <time>2017-10-18T14:35:40Z</time>
      </trkpt>
      <trkpt lat="43.57879" lon="6.16067">
        <ele>459.8</ele>
        <time>2017-10-18T14:35:47Z</time>
      </trkpt>
      <trkpt lat="43.5787" lon="6.16074">
        <ele>459.6</ele>
        <time>2017-10-18T14:35:54Z</time>
      </trkpt>
      <trkpt lat="43.57862" lon="6.16081">
        <ele>458.8</ele>
        <time>2017-10-18T14:36:02Z</time>
      </trkpt>
      <trkpt lat="43.57853" lon="6.16088">
        <ele>458.5</ele>
        <time>2017-10-18T14:36:10Z</time>
      </trkpt>
      <trkpt lat="43.57844" lon="6.16094">
        <ele>458.2</ele>
        <time>2017-10-18T14:36:18Z</time>
      </trkpt>
      <trkpt lat="43.57838" lon="6.16102">
        <ele>458</ele>
        <time>2017-10-18T14:36:26Z</time>
      </trkpt>
      <trkpt lat="43.57834" lon="6.16114">
        <ele>457.9</ele>
        <time>2017-10-18T14:36:40Z</time>
      </trkpt>
      <trkpt lat="43.57826" lon="6.16122">
        <ele>457.5</ele>
        <time>2017-10-18T14:36:48Z</time>
      </trkpt>
      <trkpt lat="43.57818" lon="6.16129">
        <ele>457.1</ele>
        <time>2017-10-18T14:36:56Z</time>
      </trkpt>
      <trkpt lat="43.5781" lon="6.16137">
        <ele>456.9</ele>
        <time>2017-10-18T14:37:04Z</time>
      </trkpt>
      <trkpt lat="43.57804" lon="6.16147">
        <ele>456.7</ele>
        <time>2017-10-18T14:37:12Z</time>
      </trkpt>
      <trkpt lat="43.57798" lon="6.16158">
        <ele>456.4</ele>
        <time>2017-10-18T14:37:21Z</time>
      </trkpt>
      <trkpt lat="43.57795" lon="6.1617">
        <ele>456.1</ele>
        <time>2017-10-18T14:37:29Z</time>
      </trkpt>
      <trkpt lat="43.57793" lon="6.16183">
        <ele>455.7</ele>
        <time>2017-10-18T14:37:38Z</time>
      </trkpt>
      <trkpt lat="43.57789" lon="6.16196">
        <ele>455.4</ele>
        <time>2017-10-18T14:37:46Z</time>
      </trkpt>
      <trkpt lat="43.57786" lon="6.16209">
        <ele>455.3</ele>
        <time>2017-10-18T14:37:55Z</time>
      </trkpt>
      <trkpt lat="43.57786" lon="6.16222">
        <ele>454.8</ele>
        <time>2017-10-18T14:38:03Z</time>
      </trkpt>
      <trkpt lat="43.57784" lon="6.16235">
        <ele>454.4</ele>
        <time>2017-10-18T14:38:11Z</time>
      </trkpt>
      <trkpt lat="43.57782" lon="6.16248">
        <ele>454.2</ele>
        <time>2017-10-18T14:38:19Z</time>
      </trkpt>
      <trkpt lat="43.57782" lon="6.16262">
        <ele>454.2</ele>
        <time>2017-10-18T14:38:27Z</time>
      </trkpt>
      <trkpt lat="43.57781" lon="6.16275">
        <ele>454.3</ele>
        <time>2017-10-18T14:38:35Z</time>
      </trkpt>
      <trkpt lat="43.57779" lon="6.16288">
        <ele>454.1</ele>
        <time>2017-10-18T14:38:43Z</time>
      </trkpt>
      <trkpt lat="43.57777" lon="6.163">
        <ele>453.6</ele>
        <time>2017-10-18T14:38:50Z</time>
      </trkpt>
      <trkpt lat="43.57776" lon="6.16313">
        <ele>453.7</ele>
        <time>2017-10-18T14:38:58Z</time>
      </trkpt>
      <trkpt lat="43.57774" lon="6.16326">
        <ele>453.5</ele>
        <time>2017-10-18T14:39:07Z</time>
      </trkpt>
      <trkpt lat="43.5777" lon="6.16338">
        <ele>453.7</ele>
        <time>2017-10-18T14:39:15Z</time>
      </trkpt>
      <trkpt lat="43.57765" lon="6.16349">
        <ele>453.8</ele>
        <time>2017-10-18T14:39:23Z</time>
      </trkpt>
      <trkpt lat="43.57762" lon="6.16362">
        <ele>453.8</ele>
        <time>2017-10-18T14:39:32Z</time>
      </trkpt>
      <trkpt lat="43.57761" lon="6.16375">
        <ele>453.2</ele>
        <time>2017-10-18T14:39:40Z</time>
      </trkpt>
      <trkpt lat="43.57758" lon="6.16387">
        <ele>452.1</ele>
        <time>2017-10-18T14:39:47Z</time>
      </trkpt>
      <trkpt lat="43.57754" lon="6.16399">
        <ele>451.2</ele>
        <time>2017-10-18T14:39:54Z</time>
      </trkpt>
      <trkpt lat="43.57753" lon="6.16413">
        <ele>450.3</ele>
        <time>2017-10-18T14:40:02Z</time>
      </trkpt>
      <trkpt lat="43.57751" lon="6.16425">
        <ele>449.5</ele>
        <time>2017-10-18T14:40:09Z</time>
      </trkpt>
      <trkpt lat="43.57748" lon="6.16438">
        <ele>448.6</ele>
        <time>2017-10-18T14:40:17Z</time>
      </trkpt>
      <trkpt lat="43.57746" lon="6.1645">
        <ele>447.7</ele>
        <time>2017-10-18T14:40:25Z</time>
      </trkpt>
      <trkpt lat="43.57747" lon="6.16463">
        <ele>447.1</ele>
        <time>2017-10-18T14:40:31Z</time>
      </trkpt>
      <trkpt lat="43.57752" lon="6.16475">
        <ele>446.2</ele>
        <time>2017-10-18T14:40:38Z</time>
      </trkpt>
      <trkpt lat="43.57756" lon="6.16486">
        <ele>445</ele>
        <time>2017-10-18T14:40:47Z</time>
      </trkpt>
      <trkpt lat="43.57761" lon="6.16498">
        <ele>444.1</ele>
        <time>2017-10-18T14:40:54Z</time>
      </trkpt>
      <trkpt lat="43.57763" lon="6.16511">
        <ele>443.5</ele>
        <time>2017-10-18T14:41:02Z</time>
      </trkpt>
      <trkpt lat="43.57764" lon="6.16524">
        <ele>443</ele>
        <time>2017-10-18T14:41:10Z</time>
      </trkpt>
      <trkpt lat="43.57765" lon="6.16536">
        <ele>442.9</ele>
        <time>2017-10-18T14:41:17Z</time>
      </trkpt>
      <trkpt lat="43.57762" lon="6.16548">
        <ele>442.6</ele>
        <time>2017-10-18T14:41:25Z</time>
      </trkpt>
      <trkpt lat="43.57757" lon="6.16559">
        <ele>442.4</ele>
        <time>2017-10-18T14:41:33Z</time>
      </trkpt>
      <trkpt lat="43.57749" lon="6.16565">
        <ele>442.1</ele>
        <time>2017-10-18T14:41:38Z</time>
      </trkpt>
      <trkpt lat="43.5774" lon="6.16571">
        <ele>441.3</ele>
        <time>2017-10-18T14:41:45Z</time>
      </trkpt>
      <trkpt lat="43.57731" lon="6.16576">
        <ele>440.5</ele>
        <time>2017-10-18T14:41:53Z</time>
      </trkpt>
      <trkpt lat="43.57725" lon="6.16584">
        <ele>440.2</ele>
        <time>2017-10-18T14:42:00Z</time>
      </trkpt>
      <trkpt lat="43.57716" lon="6.16591">
        <ele>439.7</ele>
        <time>2017-10-18T14:42:07Z</time>
      </trkpt>
      <trkpt lat="43.57708" lon="6.16601">
        <ele>439.5</ele>
        <time>2017-10-18T14:42:14Z</time>
      </trkpt>
      <trkpt lat="43.57701" lon="6.16611">
        <ele>438.8</ele>
        <time>2017-10-18T14:42:22Z</time>
      </trkpt>
      <trkpt lat="43.57697" lon="6.16621">
        <ele>438.5</ele>
        <time>2017-10-18T14:42:29Z</time>
      </trkpt>
      <trkpt lat="43.57692" lon="6.16633">
        <ele>438.3</ele>
        <time>2017-10-18T14:42:36Z</time>
      </trkpt>
      <trkpt lat="43.57689" lon="6.16646">
        <ele>437.8</ele>
        <time>2017-10-18T14:42:45Z</time>
      </trkpt>
      <trkpt lat="43.57685" lon="6.16657">
        <ele>437.5</ele>
        <time>2017-10-18T14:42:53Z</time>
      </trkpt>
      <trkpt lat="43.5768" lon="6.16668">
        <ele>437.3</ele>
        <time>2017-10-18T14:43:01Z</time>
      </trkpt>
      <trkpt lat="43.57673" lon="6.16679">
        <ele>436.9</ele>
        <time>2017-10-18T14:43:08Z</time>
      </trkpt>
      <trkpt lat="43.57669" lon="6.1669">
        <ele>436.8</ele>
        <time>2017-10-18T14:43:15Z</time>
      </trkpt>
      <trkpt lat="43.57665" lon="6.16702">
        <ele>436.1</ele>
        <time>2017-10-18T14:43:24Z</time>
      </trkpt>
      <trkpt lat="43.57659" lon="6.16712">
        <ele>435.6</ele>
        <time>2017-10-18T14:43:32Z</time>
      </trkpt>
      <trkpt lat="43.57651" lon="6.1672">
        <ele>435.5</ele>
        <time>2017-10-18T14:43:39Z</time>
      </trkpt>
      <trkpt lat="43.57645" lon="6.1673">
        <ele>435.4</ele>
        <time>2017-10-18T14:43:47Z</time>
      </trkpt>
      <trkpt lat="43.57638" lon="6.1674">
        <ele>435.2</ele>
        <time>2017-10-18T14:43:55Z</time>
      </trkpt>
      <trkpt lat="43.57631" lon="6.16749">
        <ele>435.2</ele>
        <time>2017-10-18T14:44:03Z</time>
      </trkpt>
      <trkpt lat="43.57629" lon="6.16762">
        <ele>434.7</ele>
        <time>2017-10-18T14:44:10Z</time>
      </trkpt>
      <trkpt lat="43.5763" lon="6.16775">
        <ele>434</ele>
        <time>2017-10-18T14:44:18Z</time>
      </trkpt>
      <trkpt lat="43.57628" lon="6.16788">
        <ele>433.6</ele>
        <time>2017-10-18T14:44:26Z</time>
      </trkpt>
      <trkpt lat="43.57623" lon="6.168">
        <ele>433.4</ele>
        <time>2017-10-18T14:44:34Z</time>
      </trkpt>
      <trkpt lat="43.57617" lon="6.1681">
        <ele>433.3</ele>
        <time>2017-10-18T14:44:41Z</time>
      </trkpt>
      <trkpt lat="43.57611" lon="6.1682">
        <ele>432.9</ele>
        <time>2017-10-18T14:44:49Z</time>
      </trkpt>
      <trkpt lat="43.57606" lon="6.16831">
        <ele>432.7</ele>
        <time>2017-10-18T14:44:56Z</time>
      </trkpt>
      <trkpt lat="43.57603" lon="6.16843">
        <ele>432.4</ele>
        <time>2017-10-18T14:45:04Z</time>
      </trkpt>
      <trkpt lat="43.57601" lon="6.16856">
        <ele>432.2</ele>
        <time>2017-10-18T14:45:12Z</time>
      </trkpt>
      <trkpt lat="43.57597" lon="6.16868">
        <ele>431.8</ele>
        <time>2017-10-18T14:45:21Z</time>
      </trkpt>
      <trkpt lat="43.57588" lon="6.16872">
        <ele>432.1</ele>
        <time>2017-10-18T14:46:34Z</time>
      </trkpt>
      <trkpt lat="43.57578" lon="6.16875">
        <ele>432.1</ele>
        <time>2017-10-18T14:46:42Z</time>
      </trkpt>
      <trkpt lat="43.5757" lon="6.16882">
        <ele>432.6</ele>
        <time>2017-10-18T14:46:49Z</time>
      </trkpt>
      <trkpt lat="43.57561" lon="6.16885">
        <ele>433.3</ele>
        <time>2017-10-18T14:46:57Z</time>
      </trkpt>
      <trkpt lat="43.57552" lon="6.16883">
        <ele>433.5</ele>
        <time>2017-10-18T14:47:09Z</time>
      </trkpt>
      <trkpt lat="43.57543" lon="6.16886">
        <ele>433</ele>
        <time>2017-10-18T14:47:18Z</time>
      </trkpt>
      <trkpt lat="43.57534" lon="6.16889">
        <ele>433.2</ele>
        <time>2017-10-18T14:47:26Z</time>
      </trkpt>
      <trkpt lat="43.57524" lon="6.16886">
        <ele>432.9</ele>
        <time>2017-10-18T14:47:35Z</time>
      </trkpt>
      <trkpt lat="43.57517" lon="6.16877">
        <ele>432.5</ele>
        <time>2017-10-18T14:47:44Z</time>
      </trkpt>
      <trkpt lat="43.57509" lon="6.1687">
        <ele>431.7</ele>
        <time>2017-10-18T14:47:52Z</time>
      </trkpt>
      <trkpt lat="43.575" lon="6.16866">
        <ele>430.9</ele>
        <time>2017-10-18T14:48:00Z</time>
      </trkpt>
      <trkpt lat="43.5749" lon="6.16865">
        <ele>429.4</ele>
        <time>2017-10-18T14:48:09Z</time>
      </trkpt>
      <trkpt lat="43.5748" lon="6.1687">
        <ele>428.8</ele>
        <time>2017-10-18T14:48:16Z</time>
      </trkpt>
      <trkpt lat="43.57471" lon="6.16874">
        <ele>427.6</ele>
        <time>2017-10-18T14:48:24Z</time>
      </trkpt>
      <trkpt lat="43.57463" lon="6.1688">
        <ele>426.9</ele>
        <time>2017-10-18T14:48:31Z</time>
      </trkpt>
      <trkpt lat="43.57457" lon="6.16889">
        <ele>425.8</ele>
        <time>2017-10-18T14:48:39Z</time>
      </trkpt>
      <trkpt lat="43.5745" lon="6.16899">
        <ele>424.3</ele>
        <time>2017-10-18T14:48:48Z</time>
      </trkpt>
      <trkpt lat="43.57449" lon="6.16912">
        <ele>423.5</ele>
        <time>2017-10-18T14:48:57Z</time>
      </trkpt>
      <trkpt lat="43.57449" lon="6.16925">
        <ele>422.1</ele>
        <time>2017-10-18T14:49:05Z</time>
      </trkpt>
      <trkpt lat="43.57445" lon="6.16937">
        <ele>421</ele>
        <time>2017-10-18T14:49:14Z</time>
      </trkpt>
      <trkpt lat="43.57435" lon="6.16937">
        <ele>420.3</ele>
        <time>2017-10-18T14:49:27Z</time>
      </trkpt>
      <trkpt lat="43.57426" lon="6.16934">
        <ele>419</ele>
        <time>2017-10-18T14:49:36Z</time>
      </trkpt>
      <trkpt lat="43.57417" lon="6.16932">
        <ele>417.6</ele>
        <time>2017-10-18T14:49:46Z</time>
      </trkpt>
      <trkpt lat="43.57408" lon="6.16935">
        <ele>416.1</ele>
        <time>2017-10-18T14:49:53Z</time>
      </trkpt>
      <trkpt lat="43.57399" lon="6.16941">
        <ele>414.9</ele>
        <time>2017-10-18T14:50:02Z</time>
      </trkpt>
      <trkpt lat="43.57389" lon="6.16946">
        <ele>413.3</ele>
        <time>2017-10-18T14:50:10Z</time>
      </trkpt>
      <trkpt lat="43.57381" lon="6.16955">
        <ele>412.1</ele>
        <time>2017-10-18T14:50:18Z</time>
      </trkpt>
      <trkpt lat="43.57376" lon="6.16966">
        <ele>411.3</ele>
        <time>2017-10-18T14:50:25Z</time>
      </trkpt>
      <trkpt lat="43.57373" lon="6.16978">
        <ele>409.9</ele>
        <time>2017-10-18T14:50:33Z</time>
      </trkpt>
      <trkpt lat="43.57369" lon="6.16991">
        <ele>409.2</ele>
        <time>2017-10-18T14:50:42Z</time>
      </trkpt>
      <trkpt lat="43.57369" lon="6.17004">
        <ele>409.1</ele>
        <time>2017-10-18T14:50:49Z</time>
      </trkpt>
      <trkpt lat="43.57367" lon="6.17017">
        <ele>408.5</ele>
        <time>2017-10-18T14:50:56Z</time>
      </trkpt>
      <trkpt lat="43.57363" lon="6.1703">
        <ele>407.4</ele>
        <time>2017-10-18T14:51:05Z</time>
      </trkpt>
      <trkpt lat="43.57357" lon="6.1704">
        <ele>406.5</ele>
        <time>2017-10-18T14:51:13Z</time>
      </trkpt>
      <trkpt lat="43.5735" lon="6.17048">
        <ele>406.6</ele>
        <time>2017-10-18T14:51:21Z</time>
      </trkpt>
      <trkpt lat="43.57344" lon="6.17057">
        <ele>406.6</ele>
        <time>2017-10-18T14:51:28Z</time>
      </trkpt>
      <trkpt lat="43.57336" lon="6.17065">
        <ele>405.9</ele>
        <time>2017-10-18T14:51:37Z</time>
      </trkpt>
      <trkpt lat="43.57332" lon="6.17078">
        <ele>405.8</ele>
        <time>2017-10-18T14:51:46Z</time>
      </trkpt>
      <trkpt lat="43.57335" lon="6.17091">
        <ele>405.3</ele>
        <time>2017-10-18T14:51:54Z</time>
      </trkpt>
      <trkpt lat="43.57339" lon="6.17102">
        <ele>404.4</ele>
        <time>2017-10-18T14:52:01Z</time>
      </trkpt>
      <trkpt lat="43.57344" lon="6.17114">
        <ele>403.1</ele>
        <time>2017-10-18T14:52:09Z</time>
      </trkpt>
      <trkpt lat="43.57348" lon="6.17125">
        <ele>402.5</ele>
        <time>2017-10-18T14:52:16Z</time>
      </trkpt>
      <trkpt lat="43.57355" lon="6.17134">
        <ele>401.9</ele>
        <time>2017-10-18T14:52:24Z</time>
      </trkpt>
      <trkpt lat="43.57357" lon="6.17147">
        <ele>401.4</ele>
        <time>2017-10-18T14:52:31Z</time>
      </trkpt>
      <trkpt lat="43.5736" lon="6.17159">
        <ele>401</ele>
        <time>2017-10-18T14:52:38Z</time>
      </trkpt>
      <trkpt lat="43.5736" lon="6.17172">
        <ele>400.4</ele>
        <time>2017-10-18T14:52:45Z</time>
      </trkpt>
      <trkpt lat="43.5736" lon="6.17186">
        <ele>400</ele>
        <time>2017-10-18T14:52:53Z</time>
      </trkpt>
      <trkpt lat="43.57361" lon="6.17198">
        <ele>399.7</ele>
        <time>2017-10-18T14:53:00Z</time>
      </trkpt>
      <trkpt lat="43.57366" lon="6.17209">
        <ele>399.3</ele>
        <time>2017-10-18T14:53:08Z</time>
      </trkpt>
      <trkpt lat="43.57371" lon="6.17221">
        <ele>398.7</ele>
        <time>2017-10-18T14:53:16Z</time>
      </trkpt>
      <trkpt lat="43.57374" lon="6.17234">
        <ele>397.6</ele>
        <time>2017-10-18T14:53:24Z</time>
      </trkpt>
      <trkpt lat="43.57375" lon="6.17246">
        <ele>397.1</ele>
        <time>2017-10-18T14:53:31Z</time>
      </trkpt>
      <trkpt lat="43.57373" lon="6.1726">
        <ele>396.6</ele>
        <time>2017-10-18T14:53:39Z</time>
      </trkpt>
      <trkpt lat="43.57369" lon="6.17271">
        <ele>395.5</ele>
        <time>2017-10-18T14:54:02Z</time>
      </trkpt>
      <trkpt lat="43.57367" lon="6.17283">
        <ele>395</ele>
        <time>2017-10-18T14:54:24Z</time>
      </trkpt>
      <trkpt lat="43.57359" lon="6.17291">
        <ele>394.1</ele>
        <time>2017-10-18T14:56:10Z</time>
      </trkpt>
      <trkpt lat="43.57355" lon="6.17303">
        <ele>393</ele>
        <time>2017-10-18T14:56:30Z</time>
      </trkpt>
      <trkpt lat="43.57363" lon="6.17311">
        <ele>392.6</ele>
        <time>2017-10-18T14:56:57Z</time>
      </trkpt>
      <trkpt lat="43.57354" lon="6.17312">
        <ele>392.4</ele>
        <time>2017-10-18T14:57:07Z</time>
      </trkpt>
      <trkpt lat="43.57346" lon="6.17321">
        <ele>392.6</ele>
        <time>2017-10-18T14:57:17Z</time>
      </trkpt>
      <trkpt lat="43.57338" lon="6.17326">
        <ele>392.6</ele>
        <time>2017-10-18T14:57:28Z</time>
      </trkpt>
      <trkpt lat="43.57328" lon="6.17333">
        <ele>392.4</ele>
        <time>2017-10-18T14:57:37Z</time>
      </trkpt>
      <trkpt lat="43.57319" lon="6.17336">
        <ele>392.6</ele>
        <time>2017-10-18T14:57:44Z</time>
      </trkpt>
      <trkpt lat="43.57311" lon="6.17343">
        <ele>392.2</ele>
        <time>2017-10-18T14:57:54Z</time>
      </trkpt>
      <trkpt lat="43.57302" lon="6.1735">
        <ele>392.1</ele>
        <time>2017-10-18T14:58:02Z</time>
      </trkpt>
      <trkpt lat="43.57293" lon="6.17356">
        <ele>392.3</ele>
        <time>2017-10-18T14:58:08Z</time>
      </trkpt>
      <trkpt lat="43.57285" lon="6.17362">
        <ele>392.2</ele>
        <time>2017-10-18T14:58:16Z</time>
      </trkpt>
      <trkpt lat="43.57276" lon="6.17368">
        <ele>392.3</ele>
        <time>2017-10-18T14:58:24Z</time>
      </trkpt>
      <trkpt lat="43.57267" lon="6.17372">
        <ele>391.7</ele>
        <time>2017-10-18T14:58:31Z</time>
      </trkpt>
      <trkpt lat="43.57259" lon="6.17378">
        <ele>390.1</ele>
        <time>2017-10-18T14:58:42Z</time>
      </trkpt>
      <trkpt lat="43.57251" lon="6.17384">
        <ele>388.9</ele>
        <time>2017-10-18T14:58:49Z</time>
      </trkpt>
      <trkpt lat="43.57242" lon="6.17392">
        <ele>387.6</ele>
        <time>2017-10-18T14:58:58Z</time>
      </trkpt>
      <trkpt lat="43.57232" lon="6.17394">
        <ele>387</ele>
        <time>2017-10-18T14:59:05Z</time>
      </trkpt>
      <trkpt lat="43.57221" lon="6.17394">
        <ele>386.7</ele>
        <time>2017-10-18T14:59:15Z</time>
      </trkpt>
      <trkpt lat="43.57212" lon="6.17396">
        <ele>386.3</ele>
        <time>2017-10-18T14:59:21Z</time>
      </trkpt>
      <trkpt lat="43.57202" lon="6.174">
        <ele>386</ele>
        <time>2017-10-18T14:59:29Z</time>
      </trkpt>
      <trkpt lat="43.57192" lon="6.17402">
        <ele>385.7</ele>
        <time>2017-10-18T14:59:37Z</time>
      </trkpt>
      <trkpt lat="43.57183" lon="6.17406">
        <ele>385.5</ele>
        <time>2017-10-18T14:59:44Z</time>
      </trkpt>
      <trkpt lat="43.57174" lon="6.17409">
        <ele>385.3</ele>
        <time>2017-10-18T14:59:52Z</time>
      </trkpt>
      <trkpt lat="43.57165" lon="6.17412">
        <ele>385.1</ele>
        <time>2017-10-18T15:00:00Z</time>
      </trkpt>
      <trkpt lat="43.57156" lon="6.17415">
        <ele>384.8</ele>
        <time>2017-10-18T15:00:07Z</time>
      </trkpt>
      <trkpt lat="43.57146" lon="6.17418">
        <ele>384.9</ele>
        <time>2017-10-18T15:00:14Z</time>
      </trkpt>
      <trkpt lat="43.57137" lon="6.17421">
        <ele>384.9</ele>
        <time>2017-10-18T15:00:21Z</time>
      </trkpt>
      <trkpt lat="43.57128" lon="6.17423">
        <ele>384.5</ele>
        <time>2017-10-18T15:00:29Z</time>
      </trkpt>
      <trkpt lat="43.57119" lon="6.17426">
        <ele>384.4</ele>
        <time>2017-10-18T15:00:37Z</time>
      </trkpt>
      <trkpt lat="43.57109" lon="6.17429">
        <ele>384.4</ele>
        <time>2017-10-18T15:00:45Z</time>
      </trkpt>
      <trkpt lat="43.571" lon="6.17433">
        <ele>384.1</ele>
        <time>2017-10-18T15:00:53Z</time>
      </trkpt>
      <trkpt lat="43.57091" lon="6.17436">
        <ele>384</ele>
        <time>2017-10-18T15:01:00Z</time>
      </trkpt>
      <trkpt lat="43.57081" lon="6.17438">
        <ele>383.9</ele>
        <time>2017-10-18T15:01:09Z</time>
      </trkpt>
      <trkpt lat="43.57072" lon="6.17442">
        <ele>383.4</ele>
        <time>2017-10-18T15:01:17Z</time>
      </trkpt>
      <trkpt lat="43.57063" lon="6.17445">
        <ele>383.1</ele>
        <time>2017-10-18T15:01:24Z</time>
      </trkpt>
      <trkpt lat="43.57053" lon="6.17447">
        <ele>383</ele>
        <time>2017-10-18T15:01:32Z</time>
      </trkpt>
      <trkpt lat="43.57044" lon="6.17449">
        <ele>383.2</ele>
        <time>2017-10-18T15:01:39Z</time>
      </trkpt>
      <trkpt lat="43.57035" lon="6.17453">
        <ele>383.1</ele>
        <time>2017-10-18T15:01:48Z</time>
      </trkpt>
      <trkpt lat="43.57026" lon="6.17455">
        <ele>382.6</ele>
        <time>2017-10-18T15:01:57Z</time>
      </trkpt>
      <trkpt lat="43.57016" lon="6.17459">
        <ele>382.1</ele>
        <time>2017-10-18T15:02:05Z</time>
      </trkpt>
      <trkpt lat="43.57007" lon="6.17461">
        <ele>381.9</ele>
        <time>2017-10-18T15:02:14Z</time>
      </trkpt>
      <trkpt lat="43.56998" lon="6.17464">
        <ele>382.3</ele>
        <time>2017-10-18T15:02:21Z</time>
      </trkpt>
      <trkpt lat="43.56988" lon="6.17468">
        <ele>381.9</ele>
        <time>2017-10-18T15:02:30Z</time>
      </trkpt>
      <trkpt lat="43.56978" lon="6.1747">
        <ele>381.5</ele>
        <time>2017-10-18T15:02:38Z</time>
      </trkpt>
      <trkpt lat="43.56969" lon="6.17471">
        <ele>381.5</ele>
        <time>2017-10-18T15:02:47Z</time>
      </trkpt>
      <trkpt lat="43.5696" lon="6.17475">
        <ele>381.4</ele>
        <time>2017-10-18T15:02:55Z</time>
      </trkpt>
      <trkpt lat="43.56951" lon="6.17479">
        <ele>381.2</ele>
        <time>2017-10-18T15:03:02Z</time>
      </trkpt>
      <trkpt lat="43.56942" lon="6.17481">
        <ele>381.2</ele>
        <time>2017-10-18T15:03:10Z</time>
      </trkpt>
      <trkpt lat="43.56933" lon="6.17485">
        <ele>380.9</ele>
        <time>2017-10-18T15:03:19Z</time>
      </trkpt>
      <trkpt lat="43.56923" lon="6.17487">
        <ele>380.8</ele>
        <time>2017-10-18T15:03:27Z</time>
      </trkpt>
      <trkpt lat="43.56914" lon="6.1749">
        <ele>380.8</ele>
        <time>2017-10-18T15:03:34Z</time>
      </trkpt>
      <trkpt lat="43.56904" lon="6.17491">
        <ele>380.5</ele>
        <time>2017-10-18T15:03:42Z</time>
      </trkpt>
      <trkpt lat="43.56894" lon="6.17491">
        <ele>380.8</ele>
        <time>2017-10-18T15:03:51Z</time>
      </trkpt>
      <trkpt lat="43.56884" lon="6.17493">
        <ele>381.2</ele>
        <time>2017-10-18T15:03:59Z</time>
      </trkpt>
      <trkpt lat="43.56876" lon="6.17498">
        <ele>381.3</ele>
        <time>2017-10-18T15:04:11Z</time>
      </trkpt>
      <trkpt lat="43.56878" lon="6.17512">
        <ele>381.4</ele>
        <time>2017-10-18T15:04:41Z</time>
      </trkpt>
      <trkpt lat="43.56873" lon="6.17524">
        <ele>381.5</ele>
        <time>2017-10-18T15:04:49Z</time>
      </trkpt>
      <trkpt lat="43.56868" lon="6.17536">
        <ele>382</ele>
        <time>2017-10-18T15:04:59Z</time>
      </trkpt>
      <trkpt lat="43.56868" lon="6.17549">
        <ele>382.3</ele>
        <time>2017-10-18T15:05:08Z</time>
      </trkpt>
      <trkpt lat="43.56867" lon="6.17563">
        <ele>382.2</ele>
        <time>2017-10-18T15:05:16Z</time>
      </trkpt>
      <trkpt lat="43.56862" lon="6.17574">
        <ele>382.1</ele>
        <time>2017-10-18T15:05:22Z</time>
      </trkpt>
      <trkpt lat="43.5686" lon="6.17588">
        <ele>382.1</ele>
        <time>2017-10-18T15:05:31Z</time>
      </trkpt>
      <trkpt lat="43.56858" lon="6.176">
        <ele>382.2</ele>
        <time>2017-10-18T15:05:40Z</time>
      </trkpt>
      <trkpt lat="43.56856" lon="6.17612">
        <ele>382.5</ele>
        <time>2017-10-18T15:05:49Z</time>
      </trkpt>
      <trkpt lat="43.56851" lon="6.17623">
        <ele>383</ele>
        <time>2017-10-18T15:05:57Z</time>
      </trkpt>
      <trkpt lat="43.56847" lon="6.17635">
        <ele>382.9</ele>
        <time>2017-10-18T15:06:07Z</time>
      </trkpt>
      <trkpt lat="43.56843" lon="6.17646">
        <ele>382.4</ele>
        <time>2017-10-18T15:06:19Z</time>
      </trkpt>
      <trkpt lat="43.56842" lon="6.1766">
        <ele>381.6</ele>
        <time>2017-10-18T15:06:29Z</time>
      </trkpt>
      <trkpt lat="43.56845" lon="6.17672">
        <ele>381.6</ele>
        <time>2017-10-18T15:06:39Z</time>
      </trkpt>
      <trkpt lat="43.56845" lon="6.17686">
        <ele>381.2</ele>
        <time>2017-10-18T15:06:48Z</time>
      </trkpt>
      <trkpt lat="43.5685" lon="6.17697">
        <ele>381.3</ele>
        <time>2017-10-18T15:06:58Z</time>
      </trkpt>
      <trkpt lat="43.5684" lon="6.17694">
        <ele>378.9</ele>
        <time>2017-10-18T15:08:41Z</time>
      </trkpt>
      <trkpt lat="43.56832" lon="6.17701">
        <ele>378.9</ele>
        <time>2017-10-18T15:08:52Z</time>
      </trkpt>
      <trkpt lat="43.56825" lon="6.17709">
        <ele>379.1</ele>
        <time>2017-10-18T15:09:02Z</time>
      </trkpt>
      <trkpt lat="43.56818" lon="6.17719">
        <ele>378.9</ele>
        <time>2017-10-18T15:09:11Z</time>
      </trkpt>
      <trkpt lat="43.56813" lon="6.1773">
        <ele>378.6</ele>
        <time>2017-10-18T15:09:18Z</time>
      </trkpt>
      <trkpt lat="43.5681" lon="6.17742">
        <ele>378.1</ele>
        <time>2017-10-18T15:09:27Z</time>
      </trkpt>
      <trkpt lat="43.56803" lon="6.17752">
        <ele>378</ele>
        <time>2017-10-18T15:09:35Z</time>
      </trkpt>
      <trkpt lat="43.568" lon="6.17765">
        <ele>378.1</ele>
        <time>2017-10-18T15:09:44Z</time>
      </trkpt>
      <trkpt lat="43.568" lon="6.17779">
        <ele>377.8</ele>
        <time>2017-10-18T15:09:52Z</time>
      </trkpt>
      <trkpt lat="43.56801" lon="6.17792">
        <ele>377.6</ele>
        <time>2017-10-18T15:10:00Z</time>
      </trkpt>
      <trkpt lat="43.568" lon="6.17805">
        <ele>376.7</ele>
        <time>2017-10-18T15:10:17Z</time>
      </trkpt>
      <trkpt lat="43.56799" lon="6.17817">
        <ele>377.4</ele>
        <time>2017-10-18T15:10:25Z</time>
      </trkpt>
      <trkpt lat="43.568" lon="6.17831">
        <ele>378.2</ele>
        <time>2017-10-18T15:10:32Z</time>
      </trkpt>
      <trkpt lat="43.56806" lon="6.17841">
        <ele>378.8</ele>
        <time>2017-10-18T15:10:43Z</time>
      </trkpt>
      <trkpt lat="43.56811" lon="6.17853">
        <ele>379.1</ele>
        <time>2017-10-18T15:10:50Z</time>
      </trkpt>
      <trkpt lat="43.56815" lon="6.17865">
        <ele>379.3</ele>
        <time>2017-10-18T15:10:56Z</time>
      </trkpt>
      <trkpt lat="43.56817" lon="6.17878">
        <ele>379.5</ele>
        <time>2017-10-18T15:11:02Z</time>
      </trkpt>
      <trkpt lat="43.56818" lon="6.17892">
        <ele>379.2</ele>
        <time>2017-10-18T15:11:08Z</time>
      </trkpt>
      <trkpt lat="43.56821" lon="6.17905">
        <ele>379</ele>
        <time>2017-10-18T15:11:16Z</time>
      </trkpt>
      <trkpt lat="43.56824" lon="6.17917">
        <ele>379.3</ele>
        <time>2017-10-18T15:11:23Z</time>
      </trkpt>
      <trkpt lat="43.56824" lon="6.1793">
        <ele>379.8</ele>
        <time>2017-10-18T15:11:30Z</time>
      </trkpt>
      <trkpt lat="43.56824" lon="6.17943">
        <ele>380.1</ele>
        <time>2017-10-18T15:11:37Z</time>
      </trkpt>
      <trkpt lat="43.56825" lon="6.17957">
        <ele>380.2</ele>
        <time>2017-10-18T15:11:50Z</time>
      </trkpt>
      <trkpt lat="43.56825" lon="6.17971">
        <ele>379.1</ele>
        <time>2017-10-18T15:11:57Z</time>
      </trkpt>
      <trkpt lat="43.56825" lon="6.17984">
        <ele>378.3</ele>
        <time>2017-10-18T15:12:04Z</time>
      </trkpt>
      <trkpt lat="43.56825" lon="6.17998">
        <ele>376.8</ele>
        <time>2017-10-18T15:12:13Z</time>
      </trkpt>
      <trkpt lat="43.56826" lon="6.18012">
        <ele>374</ele>
        <time>2017-10-18T15:12:35Z</time>
      </trkpt>
      <trkpt lat="43.56828" lon="6.18024">
        <ele>373.7</ele>
        <time>2017-10-18T15:12:44Z</time>
      </trkpt>
      <trkpt lat="43.56835" lon="6.18033">
        <ele>371.4</ele>
        <time>2017-10-18T15:13:05Z</time>
      </trkpt>
      <trkpt lat="43.56842" lon="6.18042">
        <ele>368.9</ele>
        <time>2017-10-18T15:13:51Z</time>
      </trkpt>
      <trkpt lat="43.56851" lon="6.18045">
        <ele>367.2</ele>
        <time>2017-10-18T15:14:01Z</time>
      </trkpt>
      <trkpt lat="43.5686" lon="6.18042">
        <ele>365.9</ele>
        <time>2017-10-18T15:14:11Z</time>
      </trkpt>
      <trkpt lat="43.56869" lon="6.18039">
        <ele>365.2</ele>
        <time>2017-10-18T15:14:20Z</time>
      </trkpt>
      <trkpt lat="43.56878" lon="6.18033">
        <ele>365.4</ele>
        <time>2017-10-18T15:14:28Z</time>
      </trkpt>
      <trkpt lat="43.5688" lon="6.18046">
        <ele>365.9</ele>
        <time>2017-10-18T15:14:39Z</time>
      </trkpt>
      <trkpt lat="43.56883" lon="6.1806">
        <ele>365.5</ele>
        <time>2017-10-18T15:14:50Z</time>
      </trkpt>
      <trkpt lat="43.56883" lon="6.18073">
        <ele>365.2</ele>
        <time>2017-10-18T15:15:01Z</time>
      </trkpt>
      <trkpt lat="43.56882" lon="6.18085">
        <ele>365.6</ele>
        <time>2017-10-18T15:15:14Z</time>
      </trkpt>
      <trkpt lat="43.56884" lon="6.18098">
        <ele>367.1</ele>
        <time>2017-10-18T15:15:38Z</time>
      </trkpt>
      <trkpt lat="43.5688" lon="6.1811">
        <ele>367.6</ele>
        <time>2017-10-18T15:15:50Z</time>
      </trkpt>
      <trkpt lat="43.56875" lon="6.18121">
        <ele>367.6</ele>
        <time>2017-10-18T15:16:00Z</time>
      </trkpt>
      <trkpt lat="43.5687" lon="6.18132">
        <ele>367.3</ele>
        <time>2017-10-18T15:16:09Z</time>
      </trkpt>
      <trkpt lat="43.56864" lon="6.18142">
        <ele>367.5</ele>
        <time>2017-10-18T15:16:17Z</time>
      </trkpt>
      <trkpt lat="43.56858" lon="6.18153">
        <ele>367.5</ele>
        <time>2017-10-18T15:16:25Z</time>
      </trkpt>
      <trkpt lat="43.56851" lon="6.1816">
        <ele>367.8</ele>
        <time>2017-10-18T15:16:35Z</time>
      </trkpt>
      <trkpt lat="43.56842" lon="6.18162">
        <ele>368</ele>
        <time>2017-10-18T15:16:42Z</time>
      </trkpt>
      <trkpt lat="43.56833" lon="6.18165">
        <ele>367.6</ele>
        <time>2017-10-18T15:16:49Z</time>
      </trkpt>
      <trkpt lat="43.56823" lon="6.18163">
        <ele>367.2</ele>
        <time>2017-10-18T15:16:59Z</time>
      </trkpt>
      <trkpt lat="43.56814" lon="6.18163">
        <ele>367.8</ele>
        <time>2017-10-18T15:17:07Z</time>
      </trkpt>
      <trkpt lat="43.56805" lon="6.18158">
        <ele>367.6</ele>
        <time>2017-10-18T15:17:20Z</time>
      </trkpt>
      <trkpt lat="43.56795" lon="6.18157">
        <ele>365.6</ele>
        <time>2017-10-18T15:19:21Z</time>
      </trkpt>
      <trkpt lat="43.56786" lon="6.18161">
        <ele>364.4</ele>
        <time>2017-10-18T15:19:32Z</time>
      </trkpt>
      <trkpt lat="43.56777" lon="6.18165">
        <ele>364.1</ele>
        <time>2017-10-18T15:19:40Z</time>
      </trkpt>
      <trkpt lat="43.56769" lon="6.18171">
        <ele>363</ele>
        <time>2017-10-18T15:19:50Z</time>
      </trkpt>
      <trkpt lat="43.56763" lon="6.18181">
        <ele>362.2</ele>
        <time>2017-10-18T15:20:00Z</time>
      </trkpt>
      <trkpt lat="43.56754" lon="6.18186">
        <ele>362.2</ele>
        <time>2017-10-18T15:20:07Z</time>
      </trkpt>
      <trkpt lat="43.56748" lon="6.18197">
        <ele>362</ele>
        <time>2017-10-18T15:20:17Z</time>
      </trkpt>
      <trkpt lat="43.56742" lon="6.18208">
        <ele>362.7</ele>
        <time>2017-10-18T15:20:26Z</time>
      </trkpt>
      <trkpt lat="43.56734" lon="6.18216">
        <ele>362.6</ele>
        <time>2017-10-18T15:20:34Z</time>
      </trkpt>
      <trkpt lat="43.56726" lon="6.18221">
        <ele>362.4</ele>
        <time>2017-10-18T15:20:42Z</time>
      </trkpt>
      <trkpt lat="43.56718" lon="6.18228">
        <ele>362.7</ele>
        <time>2017-10-18T15:20:49Z</time>
      </trkpt>
      <trkpt lat="43.5671" lon="6.18234">
        <ele>363</ele>
        <time>2017-10-18T15:20:57Z</time>
      </trkpt>
      <trkpt lat="43.56702" lon="6.18241">
        <ele>363</ele>
        <time>2017-10-18T15:21:05Z</time>
      </trkpt>
      <trkpt lat="43.56694" lon="6.18246">
        <ele>363.3</ele>
        <time>2017-10-18T15:21:13Z</time>
      </trkpt>
      <trkpt lat="43.56686" lon="6.18254">
        <ele>363.2</ele>
        <time>2017-10-18T15:21:25Z</time>
      </trkpt>
      <trkpt lat="43.56677" lon="6.18259">
        <ele>363.1</ele>
        <time>2017-10-18T15:21:31Z</time>
      </trkpt>
      <trkpt lat="43.5667" lon="6.18266">
        <ele>363.5</ele>
        <time>2017-10-18T15:21:40Z</time>
      </trkpt>
      <trkpt lat="43.56661" lon="6.18271">
        <ele>363.4</ele>
        <time>2017-10-18T15:21:48Z</time>
      </trkpt>
      <trkpt lat="43.56653" lon="6.18278">
        <ele>363.6</ele>
        <time>2017-10-18T15:21:57Z</time>
      </trkpt>
      <trkpt lat="43.56644" lon="6.18284">
        <ele>364</ele>
        <time>2017-10-18T15:22:07Z</time>
      </trkpt>
      <trkpt lat="43.56634" lon="6.1829">
        <ele>364.4</ele>
        <time>2017-10-18T15:22:15Z</time>
      </trkpt>
      <trkpt lat="43.56624" lon="6.18293">
        <ele>364.4</ele>
        <time>2017-10-18T15:22:21Z</time>
      </trkpt>
      <trkpt lat="43.56616" lon="6.18297">
        <ele>364.7</ele>
        <time>2017-10-18T15:22:28Z</time>
      </trkpt>
      <trkpt lat="43.56607" lon="6.18302">
        <ele>364.8</ele>
        <time>2017-10-18T15:22:36Z</time>
      </trkpt>
      <trkpt lat="43.56598" lon="6.18308">
        <ele>364.4</ele>
        <time>2017-10-18T15:22:46Z</time>
      </trkpt>
      <trkpt lat="43.56588" lon="6.18311">
        <ele>364</ele>
        <time>2017-10-18T15:22:53Z</time>
      </trkpt>
      <trkpt lat="43.56578" lon="6.18316">
        <ele>364.2</ele>
        <time>2017-10-18T15:23:01Z</time>
      </trkpt>
      <trkpt lat="43.56569" lon="6.18323">
        <ele>363.8</ele>
        <time>2017-10-18T15:23:09Z</time>
      </trkpt>
      <trkpt lat="43.56561" lon="6.18329">
        <ele>363.1</ele>
        <time>2017-10-18T15:23:15Z</time>
      </trkpt>
      <trkpt lat="43.56554" lon="6.18338">
        <ele>362.7</ele>
        <time>2017-10-18T15:23:23Z</time>
      </trkpt>
      <trkpt lat="43.56547" lon="6.18347">
        <ele>362.4</ele>
        <time>2017-10-18T15:23:30Z</time>
      </trkpt>
      <trkpt lat="43.56539" lon="6.18357">
        <ele>362.2</ele>
        <time>2017-10-18T15:23:38Z</time>
      </trkpt>
      <trkpt lat="43.56534" lon="6.18367">
        <ele>362.1</ele>
        <time>2017-10-18T15:23:45Z</time>
      </trkpt>
      <trkpt lat="43.56529" lon="6.18378">
        <ele>361.9</ele>
        <time>2017-10-18T15:23:53Z</time>
      </trkpt>
      <trkpt lat="43.56524" lon="6.18389">
        <ele>361.4</ele>
        <time>2017-10-18T15:23:59Z</time>
      </trkpt>
      <trkpt lat="43.5652" lon="6.18402">
        <ele>361.1</ele>
        <time>2017-10-18T15:24:07Z</time>
      </trkpt>
      <trkpt lat="43.56517" lon="6.18414">
        <ele>361</ele>
        <time>2017-10-18T15:24:14Z</time>
      </trkpt>
      <trkpt lat="43.56513" lon="6.18425">
        <ele>360.6</ele>
        <time>2017-10-18T15:24:57Z</time>
      </trkpt>
      <trkpt lat="43.56503" lon="6.18423">
        <ele>360.5</ele>
        <time>2017-10-18T15:25:07Z</time>
      </trkpt>
      <trkpt lat="43.56494" lon="6.18427">
        <ele>360.7</ele>
        <time>2017-10-18T15:25:15Z</time>
      </trkpt>
      <trkpt lat="43.56488" lon="6.18437">
        <ele>361.5</ele>
        <time>2017-10-18T15:25:25Z</time>
      </trkpt>
      <trkpt lat="43.56482" lon="6.18446">
        <ele>361.4</ele>
        <time>2017-10-18T15:25:35Z</time>
      </trkpt>
      <trkpt lat="43.5648" lon="6.18459">
        <ele>361.2</ele>
        <time>2017-10-18T15:25:43Z</time>
      </trkpt>
      <trkpt lat="43.56482" lon="6.18471">
        <ele>360.7</ele>
        <time>2017-10-18T15:25:52Z</time>
      </trkpt>
      <trkpt lat="43.56485" lon="6.18485">
        <ele>361</ele>
        <time>2017-10-18T15:26:03Z</time>
      </trkpt>
      <trkpt lat="43.56485" lon="6.18497">
        <ele>361</ele>
        <time>2017-10-18T15:26:12Z</time>
      </trkpt>
      <trkpt lat="43.56488" lon="6.1851">
        <ele>360.7</ele>
        <time>2017-10-18T15:26:21Z</time>
      </trkpt>
      <trkpt lat="43.56491" lon="6.18523">
        <ele>360.7</ele>
        <time>2017-10-18T15:26:29Z</time>
      </trkpt>
      <trkpt lat="43.56492" lon="6.18537">
        <ele>360.2</ele>
        <time>2017-10-18T15:26:36Z</time>
      </trkpt>
      <trkpt lat="43.56496" lon="6.18549">
        <ele>359.6</ele>
        <time>2017-10-18T15:26:42Z</time>
      </trkpt>
      <trkpt lat="43.56502" lon="6.18558">
        <ele>359.4</ele>
        <time>2017-10-18T15:26:47Z</time>
      </trkpt>
      <trkpt lat="43.56504" lon="6.18571">
        <ele>359</ele>
        <time>2017-10-18T15:26:53Z</time>
      </trkpt>
      <trkpt lat="43.56504" lon="6.18584">
        <ele>358.5</ele>
        <time>2017-10-18T15:27:00Z</time>
      </trkpt>
      <trkpt lat="43.56512" lon="6.18594">
        <ele>357.6</ele>
        <time>2017-10-18T15:27:07Z</time>
      </trkpt>
      <trkpt lat="43.56516" lon="6.18605">
        <ele>356.9</ele>
        <time>2017-10-18T15:27:20Z</time>
      </trkpt>
      <trkpt lat="43.56507" lon="6.1861">
        <ele>356</ele>
        <time>2017-10-18T15:27:28Z</time>
      </trkpt>
      <trkpt lat="43.56497" lon="6.1861">
        <ele>355.7</ele>
        <time>2017-10-18T15:27:33Z</time>
      </trkpt>
      <trkpt lat="43.56488" lon="6.18611">
        <ele>355</ele>
        <time>2017-10-18T15:27:39Z</time>
      </trkpt>
      <trkpt lat="43.5648" lon="6.18618">
        <ele>354</ele>
        <time>2017-10-18T15:27:48Z</time>
      </trkpt>
      <trkpt lat="43.56475" lon="6.18629">
        <ele>352.7</ele>
        <time>2017-10-18T15:27:57Z</time>
      </trkpt>
      <trkpt lat="43.56469" lon="6.18639">
        <ele>349.8</ele>
        <time>2017-10-18T15:28:12Z</time>
      </trkpt>
      <trkpt lat="43.5646" lon="6.18639">
        <ele>347.7</ele>
        <time>2017-10-18T15:28:19Z</time>
      </trkpt>
      <trkpt lat="43.56451" lon="6.18636">
        <ele>346.5</ele>
        <time>2017-10-18T15:28:29Z</time>
      </trkpt>
      <trkpt lat="43.56441" lon="6.18637">
        <ele>345.1</ele>
        <time>2017-10-18T15:28:39Z</time>
      </trkpt>
      <trkpt lat="43.56432" lon="6.18638">
        <ele>341.3</ele>
        <time>2017-10-18T15:28:53Z</time>
      </trkpt>
      <trkpt lat="43.56423" lon="6.18636">
        <ele>337.3</ele>
        <time>2017-10-18T15:29:07Z</time>
      </trkpt>
      <trkpt lat="43.56414" lon="6.18633">
        <ele>335.8</ele>
        <time>2017-10-18T15:29:18Z</time>
      </trkpt>
      <trkpt lat="43.56405" lon="6.1863">
        <ele>331</ele>
        <time>2017-10-18T15:29:45Z</time>
      </trkpt>
      <trkpt lat="43.56394" lon="6.18629">
        <ele>329.8</ele>
        <time>2017-10-18T15:29:57Z</time>
      </trkpt>
      <trkpt lat="43.56384" lon="6.18628">
        <ele>329</ele>
        <time>2017-10-18T15:30:07Z</time>
      </trkpt>
      <trkpt lat="43.56384" lon="6.18613">
        <ele>329.6</ele>
        <time>2017-10-18T15:30:17Z</time>
      </trkpt>
      <trkpt lat="43.56379" lon="6.18602">
        <ele>330</ele>
        <time>2017-10-18T15:30:27Z</time>
      </trkpt>
      <trkpt lat="43.56373" lon="6.18592">
        <ele>329.7</ele>
        <time>2017-10-18T15:30:39Z</time>
      </trkpt>
      <trkpt lat="43.56364" lon="6.18588">
        <ele>329.9</ele>
        <time>2017-10-18T15:30:45Z</time>
      </trkpt>
      <trkpt lat="43.5636" lon="6.18577">
        <ele>330.3</ele>
        <time>2017-10-18T15:30:53Z</time>
      </trkpt>
      <trkpt lat="43.56357" lon="6.18564">
        <ele>331.3</ele>
        <time>2017-10-18T15:31:01Z</time>
      </trkpt>
      <trkpt lat="43.56351" lon="6.18554">
        <ele>331.4</ele>
        <time>2017-10-18T15:31:09Z</time>
      </trkpt>
      <trkpt lat="43.56354" lon="6.1854">
        <ele>332.5</ele>
        <time>2017-10-18T15:31:19Z</time>
      </trkpt>
      <trkpt lat="43.56354" lon="6.18527">
        <ele>333.2</ele>
        <time>2017-10-18T15:31:29Z</time>
      </trkpt>
      <trkpt lat="43.56357" lon="6.18515">
        <ele>332.8</ele>
        <time>2017-10-18T15:31:41Z</time>
      </trkpt>
      <trkpt lat="43.56364" lon="6.18507">
        <ele>333.2</ele>
        <time>2017-10-18T15:32:32Z</time>
      </trkpt>
      <trkpt lat="43.56374" lon="6.18503">
        <ele>333.2</ele>
        <time>2017-10-18T15:32:56Z</time>
      </trkpt>
      <trkpt lat="43.56365" lon="6.18508">
        <ele>332.9</ele>
        <time>2017-10-18T15:33:18Z</time>
      </trkpt>
      <trkpt lat="43.56356" lon="6.18509">
        <ele>332.6</ele>
        <time>2017-10-18T15:33:41Z</time>
      </trkpt>
      <trkpt lat="43.56351" lon="6.1852">
        <ele>333</ele>
        <time>2017-10-18T15:37:43Z</time>
      </trkpt>
      <trkpt lat="43.56352" lon="6.18534">
        <ele>333.5</ele>
        <time>2017-10-18T15:37:58Z</time>
      </trkpt>
      <trkpt lat="43.56351" lon="6.18547">
        <ele>332.4</ele>
        <time>2017-10-18T15:38:09Z</time>
      </trkpt>
      <trkpt lat="43.56355" lon="6.18559">
        <ele>331.6</ele>
        <time>2017-10-18T15:38:19Z</time>
      </trkpt>
      <trkpt lat="43.56361" lon="6.18568">
        <ele>331.3</ele>
        <time>2017-10-18T15:38:29Z</time>
      </trkpt>
      <trkpt lat="43.56366" lon="6.18581">
        <ele>330.7</ele>
        <time>2017-10-18T15:38:38Z</time>
      </trkpt>
      <trkpt lat="43.56371" lon="6.1859">
        <ele>329.9</ele>
        <time>2017-10-18T15:38:46Z</time>
      </trkpt>
      <trkpt lat="43.56378" lon="6.186">
        <ele>329.7</ele>
        <time>2017-10-18T15:39:01Z</time>
      </trkpt>
      <trkpt lat="43.56384" lon="6.18611">
        <ele>329.7</ele>
        <time>2017-10-18T15:39:11Z</time>
      </trkpt>
      <trkpt lat="43.56384" lon="6.18624">
        <ele>328.8</ele>
        <time>2017-10-18T15:39:19Z</time>
      </trkpt>
      <trkpt lat="43.56393" lon="6.18629">
        <ele>328.7</ele>
        <time>2017-10-18T15:39:28Z</time>
      </trkpt>
      <trkpt lat="43.564" lon="6.18636">
        <ele>330.1</ele>
        <time>2017-10-18T15:39:39Z</time>
      </trkpt>
      <trkpt lat="43.5641" lon="6.18638">
        <ele>333.1</ele>
        <time>2017-10-18T15:39:58Z</time>
      </trkpt>
      <trkpt lat="43.56419" lon="6.18637">
        <ele>335.3</ele>
        <time>2017-10-18T15:40:13Z</time>
      </trkpt>
      <trkpt lat="43.56426" lon="6.18645">
        <ele>337</ele>
        <time>2017-10-18T15:40:27Z</time>
      </trkpt>
      <trkpt lat="43.56435" lon="6.1864">
        <ele>341</ele>
        <time>2017-10-18T15:40:50Z</time>
      </trkpt>
      <trkpt lat="43.56444" lon="6.18633">
        <ele>344.5</ele>
        <time>2017-10-18T15:41:10Z</time>
      </trkpt>
      <trkpt lat="43.56451" lon="6.1864">
        <ele>345.8</ele>
        <time>2017-10-18T15:41:22Z</time>
      </trkpt>
      <trkpt lat="43.56461" lon="6.18644">
        <ele>345.9</ele>
        <time>2017-10-18T15:41:30Z</time>
      </trkpt>
      <trkpt lat="43.5647" lon="6.18644">
        <ele>347.5</ele>
        <time>2017-10-18T15:41:43Z</time>
      </trkpt>
      <trkpt lat="43.56473" lon="6.18631">
        <ele>350.6</ele>
        <time>2017-10-18T15:42:00Z</time>
      </trkpt>
      <trkpt lat="43.56478" lon="6.18621">
        <ele>352.4</ele>
        <time>2017-10-18T15:42:11Z</time>
      </trkpt>
      <trkpt lat="43.56487" lon="6.18617">
        <ele>353.3</ele>
        <time>2017-10-18T15:42:20Z</time>
      </trkpt>
      <trkpt lat="43.56497" lon="6.18615">
        <ele>354.4</ele>
        <time>2017-10-18T15:42:31Z</time>
      </trkpt>
      <trkpt lat="43.56506" lon="6.18613">
        <ele>354.9</ele>
        <time>2017-10-18T15:42:41Z</time>
      </trkpt>
      <trkpt lat="43.56514" lon="6.18606">
        <ele>355.5</ele>
        <time>2017-10-18T15:42:51Z</time>
      </trkpt>
      <trkpt lat="43.56514" lon="6.18593">
        <ele>356.8</ele>
        <time>2017-10-18T15:43:09Z</time>
      </trkpt>
      <trkpt lat="43.56508" lon="6.18583">
        <ele>357.3</ele>
        <time>2017-10-18T15:43:18Z</time>
      </trkpt>
      <trkpt lat="43.56504" lon="6.1857">
        <ele>357.7</ele>
        <time>2017-10-18T15:43:26Z</time>
      </trkpt>
      <trkpt lat="43.56502" lon="6.18557">
        <ele>358</ele>
        <time>2017-10-18T15:43:36Z</time>
      </trkpt>
      <trkpt lat="43.56498" lon="6.18545">
        <ele>358.4</ele>
        <time>2017-10-18T15:43:43Z</time>
      </trkpt>
      <trkpt lat="43.56493" lon="6.18534">
        <ele>358.8</ele>
        <time>2017-10-18T15:43:52Z</time>
      </trkpt>
      <trkpt lat="43.5649" lon="6.18522">
        <ele>359.2</ele>
        <time>2017-10-18T15:44:00Z</time>
      </trkpt>
      <trkpt lat="43.56486" lon="6.1851">
        <ele>359.8</ele>
        <time>2017-10-18T15:44:07Z</time>
      </trkpt>
      <trkpt lat="43.56484" lon="6.18497">
        <ele>360</ele>
        <time>2017-10-18T15:44:15Z</time>
      </trkpt>
      <trkpt lat="43.56483" lon="6.18485">
        <ele>360</ele>
        <time>2017-10-18T15:44:23Z</time>
      </trkpt>
      <trkpt lat="43.56482" lon="6.18471">
        <ele>360.3</ele>
        <time>2017-10-18T15:44:31Z</time>
      </trkpt>
      <trkpt lat="43.56478" lon="6.18459">
        <ele>360.5</ele>
        <time>2017-10-18T15:44:39Z</time>
      </trkpt>
      <trkpt lat="43.56482" lon="6.18446">
        <ele>360.5</ele>
        <time>2017-10-18T15:44:47Z</time>
      </trkpt>
      <trkpt lat="43.56488" lon="6.18436">
        <ele>360.9</ele>
        <time>2017-10-18T15:44:55Z</time>
      </trkpt>
      <trkpt lat="43.56496" lon="6.18427">
        <ele>360.8</ele>
        <time>2017-10-18T15:45:03Z</time>
      </trkpt>
      <trkpt lat="43.56505" lon="6.18424">
        <ele>360.1</ele>
        <time>2017-10-18T15:45:13Z</time>
      </trkpt>
      <trkpt lat="43.56512" lon="6.18415">
        <ele>360</ele>
        <time>2017-10-18T15:45:26Z</time>
      </trkpt>
      <trkpt lat="43.56516" lon="6.18403">
        <ele>359.7</ele>
        <time>2017-10-18T15:45:34Z</time>
      </trkpt>
      <trkpt lat="43.56519" lon="6.18391">
        <ele>359.8</ele>
        <time>2017-10-18T15:45:42Z</time>
      </trkpt>
      <trkpt lat="43.56525" lon="6.18379">
        <ele>360.3</ele>
        <time>2017-10-18T15:45:51Z</time>
      </trkpt>
      <trkpt lat="43.56529" lon="6.18367">
        <ele>360.6</ele>
        <time>2017-10-18T15:45:57Z</time>
      </trkpt>
      <trkpt lat="43.56536" lon="6.18359">
        <ele>360.9</ele>
        <time>2017-10-18T15:46:04Z</time>
      </trkpt>
      <trkpt lat="43.56543" lon="6.18348">
        <ele>360.8</ele>
        <time>2017-10-18T15:46:12Z</time>
      </trkpt>
      <trkpt lat="43.5655" lon="6.18341">
        <ele>360.9</ele>
        <time>2017-10-18T15:46:19Z</time>
      </trkpt>
      <trkpt lat="43.56557" lon="6.18331">
        <ele>361.1</ele>
        <time>2017-10-18T15:46:28Z</time>
      </trkpt>
      <trkpt lat="43.56565" lon="6.18325">
        <ele>361.5</ele>
        <time>2017-10-18T15:46:36Z</time>
      </trkpt>
      <trkpt lat="43.56573" lon="6.18318">
        <ele>361.8</ele>
        <time>2017-10-18T15:46:44Z</time>
      </trkpt>
      <trkpt lat="43.56581" lon="6.18311">
        <ele>362</ele>
        <time>2017-10-18T15:46:52Z</time>
      </trkpt>
      <trkpt lat="43.5659" lon="6.18309">
        <ele>362.4</ele>
        <time>2017-10-18T15:47:00Z</time>
      </trkpt>
      <trkpt lat="43.566" lon="6.18305">
        <ele>362.8</ele>
        <time>2017-10-18T15:47:08Z</time>
      </trkpt>
      <trkpt lat="43.56609" lon="6.18301">
        <ele>362.8</ele>
        <time>2017-10-18T15:47:15Z</time>
      </trkpt>
      <trkpt lat="43.56618" lon="6.18297">
        <ele>362.9</ele>
        <time>2017-10-18T15:47:24Z</time>
      </trkpt>
      <trkpt lat="43.56627" lon="6.18293">
        <ele>362.9</ele>
        <time>2017-10-18T15:47:31Z</time>
      </trkpt>
      <trkpt lat="43.56634" lon="6.18286">
        <ele>362.9</ele>
        <time>2017-10-18T15:47:38Z</time>
      </trkpt>
      <trkpt lat="43.56642" lon="6.1828">
        <ele>362.6</ele>
        <time>2017-10-18T15:47:46Z</time>
      </trkpt>
      <trkpt lat="43.5665" lon="6.18274">
        <ele>362.2</ele>
        <time>2017-10-18T15:47:55Z</time>
      </trkpt>
      <trkpt lat="43.5666" lon="6.18268">
        <ele>361.9</ele>
        <time>2017-10-18T15:48:06Z</time>
      </trkpt>
      <trkpt lat="43.56669" lon="6.18264">
        <ele>361.8</ele>
        <time>2017-10-18T15:48:14Z</time>
      </trkpt>
      <trkpt lat="43.56677" lon="6.18257">
        <ele>361.9</ele>
        <time>2017-10-18T15:48:23Z</time>
      </trkpt>
      <trkpt lat="43.56685" lon="6.1825">
        <ele>361.7</ele>
        <time>2017-10-18T15:48:31Z</time>
      </trkpt>
      <trkpt lat="43.56693" lon="6.18242">
        <ele>361.5</ele>
        <time>2017-10-18T15:48:41Z</time>
      </trkpt>
      <trkpt lat="43.56701" lon="6.18236">
        <ele>361.4</ele>
        <time>2017-10-18T15:48:48Z</time>
      </trkpt>
      <trkpt lat="43.5671" lon="6.18229">
        <ele>361</ele>
        <time>2017-10-18T15:48:54Z</time>
      </trkpt>
      <trkpt lat="43.56718" lon="6.18225">
        <ele>361.1</ele>
        <time>2017-10-18T15:49:01Z</time>
      </trkpt>
      <trkpt lat="43.56727" lon="6.18218">
        <ele>361.2</ele>
        <time>2017-10-18T15:49:12Z</time>
      </trkpt>
      <trkpt lat="43.56735" lon="6.18211">
        <ele>361.3</ele>
        <time>2017-10-18T15:49:20Z</time>
      </trkpt>
      <trkpt lat="43.56743" lon="6.18203">
        <ele>361.7</ele>
        <time>2017-10-18T15:49:29Z</time>
      </trkpt>
      <trkpt lat="43.56751" lon="6.18195">
        <ele>361.2</ele>
        <time>2017-10-18T15:49:41Z</time>
      </trkpt>
      <trkpt lat="43.56759" lon="6.18186">
        <ele>361.3</ele>
        <time>2017-10-18T15:49:51Z</time>
      </trkpt>
      <trkpt lat="43.56766" lon="6.18178">
        <ele>361.5</ele>
        <time>2017-10-18T15:49:58Z</time>
      </trkpt>
      <trkpt lat="43.56773" lon="6.18169">
        <ele>361.4</ele>
        <time>2017-10-18T15:50:06Z</time>
      </trkpt>
      <trkpt lat="43.56781" lon="6.18163">
        <ele>362.8</ele>
        <time>2017-10-18T15:50:20Z</time>
      </trkpt>
      <trkpt lat="43.5679" lon="6.18157">
        <ele>362.8</ele>
        <time>2017-10-18T15:50:36Z</time>
      </trkpt>
      <trkpt lat="43.56796" lon="6.18159">
        <ele>363.2</ele>
        <time>2017-10-18T15:50:44Z</time>
      </trkpt>
    </trkseg>
  </trk>
</gpx>